OCREC2019 - SHORT COURSE

Organizator:
Stowarzyszenie Biegów Przeszkodowych OCR Polska
Data:
2019-06-27
Miejsce:
Gdynia
Dystans:
5 km
Zgłoszonych:
944
Wystartowało:
899
Nie ukończyło:
25
Ukończyło:
874
Na trasie:
0
Pełne wyniki :
Wyniki uproszczone:
Klasyfikacje w punktach pomiarowych: Start | 4.9km | Meta

Klasyfikacja wg czasów brutto.
MscZawodnikNumerKlubMiejscowośćKrajKategoriaMkatK/MCzas startuSpiker_OCR
4.9km
Czas
netto
5km
Czas
brutto
5km
Różn.Tempo
min/km
Tempo
km/h
        
1DINKELMAN Ruben 206M 25-291M 100:00:0100:40:2500:40:29.3500:40:30.85 8:057.4
2KASPRZYK Sebastian 125M 18-241M 200:00:0000:40:5000:40:53.6500:40:53.65+00:00:228:107.3
3KOFOED Leon 1Team Reborn OCRM Elite1M 300:00:0100:41:2300:41:25.5500:41:27.00+00:00:568:177.2
4SILIN Sergey 8Russia FOSRM Elite2M 400:00:0100:41:3600:41:39.8000:41:41.00+00:01:108:207.2
5MORI Riccardo 144M 18-242M 500:00:0000:42:5000:42:54.6000:42:54.65+00:02:238:347
6PRUSAK Piotr 312M 30-341M 600:00:0200:43:2000:43:24.5500:43:27.45+00:02:568:416.9
7VANDEWALLE Billy 198M 25-292M 700:00:0100:43:2900:43:32.5000:43:33.95+00:03:038:426.9
8WILK Sylwester 120M 18-243M 800:00:0000:43:3400:43:39.6000:43:39.60+00:03:088:436.9
9STENBECK Fredrik 142M 18-244M 900:00:0000:44:3900:44:42.8000:44:43.15+00:04:128:566.7
10HAJNOS Dawid 9Gorący Potok Team- Podhalańskie DzikiM Elite3M 1000:00:0100:45:0200:45:05.3500:45:07.00+00:04:369:016.7
11JANUSZEWSKI Bartosz 193M 25-293M 1100:00:0100:45:5700:46:00.8500:46:02.60+00:05:319:126.5
12SELIANIN Dmytro 309M 30-342M 1200:00:0300:46:0800:46:12.5000:46:15.70+00:05:449:146.5
13HANYK Lukáš 204M 25-294M 1300:00:0100:46:1800:46:22.2500:46:23.80+00:05:529:166.5
14SHERETOV Eugene 11M Elite4M 1400:00:0100:46:4700:46:50.7000:46:52.00+00:06:219:226.4
15ALVES Duarte 147OCR Portugal LABM 18-245M 1500:00:0000:47:1600:47:21.1000:47:21.35+00:06:509:286.3
16ŚWIĘTEK Bartosz 123M 18-246M 1600:00:0100:47:3300:47:37.3500:47:38.65+00:07:079:316.3
17RIJNEKER Jesper 129Team 4SportM 18-247M 1700:00:0000:47:3900:47:44.8000:47:44.85+00:07:149:326.3
18HEER Jesse De 13Hang On The NetherlandsM Elite5M 1800:00:0100:47:4000:47:43.9500:47:45.00+00:07:149:326.3
19NOVÁK Lukáš 33M Elite6M 1900:00:0100:47:4200:47:45.7000:47:47.00+00:07:169:336.3
20SCHÄFER Martin 21OCR-PACEMAKERS GERMANYM Elite7M 2000:00:0100:47:4300:47:45.7000:47:47.20+00:07:169:336.3
21KREJCI Pavel 4M Elite8M 2100:00:0100:47:4200:47:46.3500:47:47.35+00:07:169:336.3
22MENDES Axel 36AstaxinM Elite9M 2200:00:0200:47:4400:47:47.4500:47:50.00+00:07:199:336.3
23NORDVANG Tommy Kvakkestad 64Team OCR NorwayM Elite10M 2300:00:0200:47:4500:47:52.4500:47:54.85+00:07:249:346.3
24DECIUK Teofil 122M 18-248M 2400:00:0000:48:2300:48:28.3000:48:28.95+00:07:589:416.2
25TOMASIK Alan 231NEXTREMEM 25-295M 2500:00:0100:48:3300:48:42.3500:48:43.85+00:08:139:446.2
26ZAKOLODKIN Roman 223Hero Race TeamM 25-296M 2600:00:0200:48:4300:48:48.4500:48:50.45+00:08:199:456.1
27DIECKMANN Jan-Philip 207M 25-297M 2700:00:0100:49:0400:49:07.6500:49:09.10+00:08:389:496.1
28BLANKENBURGH David 228M 25-298M 2800:00:0200:49:0200:49:07.4000:49:09.50+00:08:389:496.1
29SERAFIŃSKI Maciej 126NEXTREMEM 18-249M 2900:00:0000:49:1100:49:17.3500:49:17.60+00:08:469:516.1
30TARKA Andrzej 45M Elite11M 3000:00:0200:49:1200:49:17.5500:49:19.70+00:08:489:516.1
31MOSE Kristian 311Team Reborn OCRM 30-343M 3100:00:0300:49:1400:49:18.4000:49:21.55+00:08:509:516.1
32CAPARROS Nathan 14M Elite12M 3200:00:0100:49:2500:49:30.4500:49:32.15+00:09:019:546.1
33TITCOMB Daniel 134M 18-2410M 3300:00:0000:49:2800:49:34.0000:49:34.50+00:09:039:546.1
34CEJKO Dawid 128M 18-2411M 3400:00:0000:49:5100:49:55.8500:49:56.20+00:09:259:596
35GRAVERS Mads 322M 30-344M 3500:00:0300:50:0700:50:11.4500:50:14.60+00:09:4310:026
36URBAŃSKI Kamil 307Nextreme / 17 Brygada ZmechanizowanaM 30-345M 3600:00:0300:50:1800:50:22.4000:50:25.75+00:09:5410:046
37KADRMAS Marek 132OCRA CZM 18-2412M 3700:00:0000:50:2700:50:31.5000:50:31.85+00:10:0110:065.9
38MUSSCHE Frans 264M 25-299M 3800:00:0200:50:2600:50:31.6000:50:33.65+00:10:0210:065.9
39KOWALCZYK Dawid 44M Elite13M 3900:00:0100:50:2700:50:32.9500:50:34.85+00:10:0410:065.9
40PANIN Egor 133M 18-2413M 4000:00:0000:50:4100:50:46.2000:50:46.75+00:10:1510:095.9
41KRZYSTYNIAK Robert 843M 45-491M 4100:00:0200:50:5000:50:54.6500:50:57.30+00:10:2610:115.9
42BANDOSZ Robert 18Adrenaline Rush OCRM Elite14M 4200:00:0000:51:0100:51:06.8500:51:07.45+00:10:3610:135.9
43ZAWISTOWSKI Jakub 197M 25-2910M 4300:00:0200:51:0200:51:07.1500:51:09.15+00:10:3810:135.9
44MIKRUT Jakub 127M 18-2414M 4400:00:0100:51:0800:51:13.0000:51:14.00+00:10:4310:145.9
45JANSSON Thomas 47Team FITM Elite15M 4500:00:0200:51:1400:51:19.9000:51:22.40+00:10:5110:165.8
46KARLSSON Karin 115W Elite1K 100:00:0100:51:2000:51:24.8500:51:26.35+00:10:5510:175.8
47ПЕРМЯКОВ Игорь 34OCR Russia 2M Elite16M 4600:00:0100:51:2400:51:29.0000:51:30.25+00:10:5910:175.8
48KUIK Thomas 148Team Hang-On the NetherlandsM 18-2415M 4700:00:0000:51:2900:51:36.1000:51:36.25+00:11:0510:195.8
49CHRISTENSEN Katja 80W Elite2K 200:00:0100:51:3500:51:40.0500:51:41.55+00:11:1010:205.8
50PRYKOWSKI Tomasz 200xRunnersM 25-2911M 4800:00:0100:51:4400:51:47.6500:51:49.20+00:11:1810:215.8
51JAROSZ Dawid 308xRunnersM 30-346M 4900:00:0300:51:5400:51:59.0500:52:02.05+00:11:3110:235.8
52VLAM Thijs 263M 25-2912M 5000:00:0200:52:0400:52:11.8500:52:14.35+00:11:4310:265.7
53KONEWKA Jacek 196Husaria Race TeamM 25-2913M 5100:00:0100:52:1300:52:17.4500:52:18.85+00:11:4810:275.7
54MAZUR Damian 310SOCIOS SILESIAM 30-347M 5200:00:0300:52:1300:52:17.4500:52:20.75+00:11:4910:275.7
55GUIBERT Romain 219Team FranceM 25-2914M 5300:00:0200:52:2500:52:30.0500:52:32.05+00:12:0110:305.7
56ДЕГТЯРЕВ Иван 22M Elite17M 5400:00:0000:52:2800:52:34.0500:52:34.75+00:12:0310:305.7
57REN Emil Friis 50EvolutionRaceM Elite18M 5500:00:0200:52:4300:52:46.5000:52:49.10+00:12:1810:335.7
58EVENSEN Ulrikke 104W Elite3K 300:00:0100:52:4200:52:48.1000:52:49.70+00:12:1810:335.7
59CLAESSON Albin 141M 18-2416M 5600:00:0000:52:5000:52:54.5000:52:55.15+00:12:2410:355.7
60BARBE Lluis 2OLLLU WOLFM Elite19M 5700:00:0100:52:5500:53:00.7500:53:01.75+00:12:3010:365.7
61CZERWIŃSKI Maciej 237Baltic SealsM 25-2915M 5800:00:0100:53:0400:53:07.0000:53:08.95+00:12:3810:375.6
62STROMMER László 875M 50-541M 5900:00:0100:53:0400:53:09.7500:53:11.55+00:12:4010:385.6
63WAŃCZYK Łukasz 17M Elite20M 6000:00:0100:53:0500:53:10.3500:53:11.85+00:12:4110:385.6
64BELOV Artur 70M Elite21M 6100:00:0200:53:1300:53:19.2500:53:21.40+00:12:5010:395.6
65JOLES Roël 393Team Hang-On the NetherlandsM 30-348M 6200:00:0200:53:2400:53:28.5500:53:30.75+00:12:5910:415.6
66WOJTYSZYN Wojciech 24xRunnersM Elite22M 6300:00:0000:53:2600:53:33.7000:53:33.70+00:13:0210:425.6
67GRZONDKO Mateusz 42M Elite23M 6400:00:0300:53:5600:54:00.2500:54:03.35+00:13:3210:485.6
68VOROBOK Tomáš 52M Elite24M 6500:00:0200:53:5700:54:01.0000:54:03.50+00:13:3210:485.6
69OOSTEROM Frank 12M Elite25M 6600:00:0000:54:0200:54:07.0000:54:07.90+00:13:3710:495.5
70PELISSIER Benoit 377M 30-349M 6700:00:0200:54:0300:54:07.2500:54:10.15+00:13:3910:495.5
71CHRISTENSEN Brian Viborg 826M 45-492M 6800:00:0200:54:1000:54:14.2500:54:16.75+00:13:4510:505.5
72VILA Jose 152OCRAMICXM 18-2417M 6900:00:0000:54:2700:54:31.6500:54:31.80+00:14:0010:545.5
73KALININ Jarosław 43xRunnersM Elite26M 7000:00:0200:54:3200:54:35.8500:54:38.25+00:14:0710:555.5
74VOLÁK Adam 177M 18-2418M 7100:00:0200:54:3600:54:41.2000:54:43.25+00:14:1210:565.5
75RUMMEL Alexander 67M Elite27M 7200:00:0200:54:5800:55:04.0500:55:06.20+00:14:3511:005.4
76GAZUREK Kacper 40M Elite28M 7300:00:0200:55:0000:55:03.9000:55:06.60+00:14:3511:005.4
77KARCZMARSKI Mateusz 305M 30-3410M 7400:00:0200:55:0900:55:14.2500:55:16.75+00:14:4511:025.4
78STIIG Jonathan 289M 25-2916M 7500:00:0400:55:1300:55:18.7500:55:23.45+00:14:5211:035.4
79PRUDÊNCIO Gonçalo 27Team Urban ObstaclesM Elite29M 7600:00:0000:55:2000:55:25.1500:55:26.05+00:14:5511:055.4
80GYÖMREI Máté 397Test TeamM 30-3411M 7700:00:0100:55:2000:55:24.7500:55:26.10+00:14:5511:055.4
81VADZIM Shalkouski 209OCR BelarusM 25-2917M 7800:00:0300:55:2400:55:27.3000:55:31.00+00:15:0011:055.4
82LAGRAND Stijn 649Team Hang-On the NetherlandsM 13-171M 7900:00:0100:55:3000:55:33.8000:55:35.40+00:15:0411:065.4
83BRZOSKWINIA Wojciech 201M 25-2918M 8000:00:0000:55:3000:55:35.7500:55:35.75+00:15:0411:075.4
84VIKTOROVICH Gruzdev Vladimir 221M 25-2919M 8100:00:0200:55:4300:55:47.6500:55:49.65+00:15:1811:095.4
85SOBIERAJSKI Bolesław 658M 13-172M 8200:00:0200:55:5300:55:58.3500:56:00.35+00:15:2911:115.4
86WITEK Piotr 274M 25-2920M 8300:00:0300:55:5400:55:58.3500:56:01.55+00:15:3011:115.4
87BRZOZOWSKI Filip 202Husaria Race TeamM 25-2921M 8400:00:0100:55:5800:56:01.6000:56:03.40+00:15:3211:125.4
88SALOMÄKI Ville 934M Journeyman1M 8500:00:0200:55:5700:56:02.8500:56:05.05+00:15:3411:125.4
88OLKHOVSKII Dmitri 35RussiaM Elite30M 8600:00:0100:55:5800:56:03.3500:56:05.05+00:15:3411:125.4
90ЕРМАКОВ Антон 7139RUSM Elite31M 8700:00:0200:56:0900:56:13.8500:56:15.85+00:15:4511:145.3
91SCHUH Martin 61union dirtrun.companyM Elite32M 8800:00:0200:56:1200:56:15.8000:56:18.75+00:15:4711:155.3
92PAVEL Kocherygin 29M Elite33M 8900:00:0100:56:1700:56:21.2500:56:22.75+00:15:5111:165.3
93MÓRAWSKI Mieszko 41M Elite34M 9000:00:0200:56:1700:56:22.2000:56:24.50+00:15:5311:165.3
94BETTS Jesse 25M Elite35M 9100:00:0100:56:3200:56:40.0000:56:41.15+00:16:1011:205.3
95VERHEUL Paul Pieter Cornelis 297Atlas Outdoor TrainingM 25-2922M 9200:00:0300:56:3600:56:42.1500:56:45.50+00:16:1411:205.3
96GONZÁLEZ Miguel Pinto 20OCR Comando del Norte Oscar FernandezM Elite36M 9300:00:0100:56:4400:56:49.6000:56:51.00+00:16:2011:225.3
97MILLAN Daniel Osma 69Brave BullsM Elite37M 9400:00:0100:56:5500:56:58.4000:57:00.20+00:16:2911:235.3
98JUSTESEN Simon 246Team SolidM 25-2923M 9500:00:0100:56:2000:57:00.9500:57:02.80+00:16:3111:245.3
99GREGERSEN Mads-Christian Agerskov 653M 13-173M 9600:00:0200:56:5700:57:01.2000:57:03.85+00:16:3311:245.3
100KRUCZKOWSKI Michał 194xRunnersM 25-2924M 9700:00:0100:57:0300:57:06.5500:57:08.10+00:16:3711:255.3
101SOBIERAJSKI Krzysztof 656M 13-174M 9800:00:0200:57:0900:57:15.1000:57:17.25+00:16:4611:275.2
102ANTCZAK Marcin 199Nextreme / 17 Brygada ZmechanizowanaM 25-2925M 9900:00:0100:57:1400:57:19.8000:57:21.20+00:16:5011:285.2
103DICKSON Mark 573M 40-441M 10000:00:0100:57:1600:57:20.9500:57:22.60+00:16:5111:285.2
104MENSINK Nick 361OCR SkillzM 30-3412M 10100:00:0200:57:1800:57:22.5000:57:25.35+00:16:5411:285.2
105DAVID Sebastien 53ElanciaM Elite38M 10200:00:0200:57:2100:57:25.1000:57:27.25+00:16:5611:295.2
106PROKUDIN Yury 647Russia-Moscow regionM 13-175M 10300:00:0200:57:3600:57:40.3000:57:43.25+00:17:1211:325.2
107JANSEN Corien 82Family Fit Indoor SurvivalW Elite4K 400:00:0200:57:5300:57:57.7000:58:00.00+00:17:2911:355.2
108OLEXANDR Tarsukov 56M Elite39M 10400:00:0100:57:2600:57:59.0500:58:00.50+00:17:2911:355.2
109MĘDYGRAŁ Krystian 235M 25-2926M 10500:00:0100:58:0500:58:10.5500:58:12.00+00:17:4111:385.2
110POLYAKOV Oleg 220M 25-2927M 10600:00:0100:58:0700:58:13.5000:58:15.45+00:17:4411:385.2
111SZYSZKA Kacper 163Koniuchy OCRM 18-2419M 10700:00:0200:58:3700:58:41.9000:58:44.05+00:18:1311:445.1
112HANSEN Mads Voss 137M 18-2420M 10800:00:0000:58:5300:58:57.7000:58:58.55+00:18:2711:475.1
113ALMERSKÄR Viktor 131M 18-2421M 10900:00:0000:58:5600:59:02.1500:59:02.95+00:18:3211:485.1
114HORVÁTH Zsolt 650OCR GaborTeamM 13-176M 11000:00:0100:59:0300:59:06.4500:59:08.30+00:18:3711:495.1
115BABUŠKOVÁ Stanislava 806W 40-441K 500:00:0200:59:0800:59:12.8000:59:15.75+00:18:4411:505.1
116ORICHOWSKI Witalij 156M 18-2422M 11100:00:0200:59:1500:59:21.6000:59:24.10+00:18:5311:525.1
117WISPELWEIJ Sem 150Hang On The NetherlandsM 18-2423M 11200:00:0000:59:1900:59:24.8500:59:25.00+00:18:5411:535
118SETTELE Stefan 368MIT OCR GermanyM 30-3413M 11300:00:0200:59:2000:59:23.4000:59:26.10+00:18:5511:525.1
119ASMUSSEN Andreas Munk 335M 30-3414M 11400:00:0300:59:1900:59:22.6500:59:26.60+00:18:5511:525.1
120KRASOŃ Bartłomiej 272M 25-2928M 11500:00:0400:59:2200:59:26.0000:59:30.25+00:18:5911:535
121SLITS Peter 861M 50-542M 11600:00:0100:59:2300:59:28.6000:59:30.35+00:18:5911:535
122DOMÍNGUEZ Eduardo Díaz 66Leyendas ocr by xforceM Elite40M 11700:00:0100:59:3300:59:36.2000:59:38.00+00:19:0711:555
123TOMAKA Tomasz 203Husaria Race TeamM 25-2929M 11800:00:0100:59:3800:59:43.4000:59:45.15+00:19:1411:565
124KOŁOSZUK Marcin 343Nextreme / 4 ZPPLOTM 30-3415M 11900:00:0200:59:5200:59:57.5001:00:00.15+00:19:2911:595
125ARZADUN Imanol Peso 72DENONTZATM Elite41M 12000:00:0100:59:5400:59:59.2501:00:01.15+00:19:3012:005
126DRAGSTED Andreas 19EvolutionRaceM Elite42M 12100:00:0201:00:0201:00:08.3501:00:10.45+00:19:3912:015
127PÉREZ Sergio Gómez 212Egyptian racersM 25-2930M 12200:00:0101:00:1901:00:23.6001:00:25.10+00:19:5412:045
128TROIAN Makar 23M Elite43M 12300:00:0101:00:2401:00:27.4501:00:29.15+00:19:5812:055
129HEŁMECKI Mateusz 270Koniuchy OCRM 25-2931M 12400:00:0301:00:3801:00:44.7501:00:48.10+00:20:1712:094.9
130CAMBRIDGE Luke 365Team Northman OCRM 30-3416M 12500:00:0301:00:4401:00:49.8001:00:53.05+00:20:2212:104.9
131HARBUNOU Ihar 6M Elite44M 12600:00:0001:00:5001:00:55.8001:00:56.65+00:20:2512:114.9
132YAROSLAV Slavushchev 261M 25-2932M 12700:00:0201:00:5601:01:00.4501:01:02.75+00:20:3112:124.9
133OSHKIN Egor 31M Elite45M 12800:00:0001:01:0201:01:08.7501:01:09.55+00:20:3812:134.9
134MEEL Jim Van Der 333Team Hang-On the NetherlandsM 30-3417M 12900:00:0301:01:0601:01:11.6501:01:15.10+00:20:4412:144.9
135PAWŁOWSKI Kamil 162M 18-2424M 13000:00:0201:01:2401:01:29.2001:01:31.25+00:21:0012:174.9
136STAMATEL Sebastian 281SOCIOS SILESIAM 25-2933M 13100:00:0301:01:2501:01:30.2001:01:33.80+00:21:0212:184.9
137SABIROV Zhanserik 76M Elite46M 13200:00:0101:01:2701:01:32.8501:01:34.45+00:21:0312:184.9
138HANDLER Christian 57M Elite47M 13300:00:0201:01:3001:01:37.5001:01:39.60+00:21:0812:194.9
139BLOEM Martijn 597Team Hang-On the NetherlandsM 40-442M 13400:00:0201:01:4201:01:46.3001:01:48.55+00:21:1712:214.9
140GROOT Bo De 100W Elite5K 600:00:0201:01:4801:01:53.8501:01:55.90+00:21:2512:224.8
141MACHTYL Zygmunt 831Best BeastsM 45-493M 13500:00:0201:01:5801:02:03.3001:02:05.45+00:21:3412:244.8
142WALTILLA Marcus 325OCR Team MausM 30-3418M 13600:00:0301:02:4301:02:46.9501:02:50.45+00:22:1912:334.8
143BUDZISZ Krzysztof 565M 40-443M 13700:00:0101:03:0701:03:11.6001:03:13.25+00:22:4212:384.7
144KEANE Josh 222TEAM MADNESSM 25-2934M 13800:00:0201:03:1401:03:17.7001:03:20.05+00:22:4912:394.7
145HÄRKÖNEN Elin 110W Elite6K 700:00:0101:03:3301:03:37.5001:03:39.00+00:23:0812:434.7
146LEMA Damián Espasandín 410M 30-3419M 13900:00:0101:03:3801:03:42.9501:03:44.45+00:23:1312:444.7
147SAVANOVICH Vitali 574M 40-444M 14000:00:0201:03:4001:03:46.4001:03:48.75+00:23:1712:454.7
148LEGANDER Simon 290M 25-2935M 14100:00:0301:03:5101:03:56.3501:04:00.05+00:23:2912:474.7
149RAMOS Sérgio 829LYNXM 45-494M 14200:00:0201:03:5501:04:00.4001:04:02.50+00:23:3112:484.7
150LLAPASSET Victor 298M 25-2936M 14300:00:0301:03:5601:04:01.6501:04:05.25+00:23:3412:484.7
151LEJK Beniamin 277xRunnersM 25-2937M 14400:00:0301:04:0401:04:07.7001:04:11.15+00:23:4012:494.7
152HEER Erik De 869Hang On The NetherlandsM 50-543M 14500:00:0101:04:0501:04:10.7001:04:12.30+00:23:4112:504.7
153BIRKENFELD Thorben 279M 25-2938M 14600:00:0401:04:0501:04:09.6001:04:13.80+00:23:4212:494.7
154PEDERSEN Christian 823EvolutionRaceM 45-495M 14700:00:0201:04:3701:04:40.7001:04:43.50+00:24:1212:564.6
155SVOBODA Vítek 409ChallengerM 30-3420M 14800:00:0201:04:4001:04:45.0501:04:47.05+00:24:1612:574.6
156VERLAAT Kees 286M 25-2939M 14900:00:0301:04:4901:04:54.6001:04:58.55+00:24:2712:594.6
157SEBASTIEN Fage 587TEAM KONG OCR FRANCEM 40-445M 15000:00:0201:05:1401:05:20.1501:05:22.25+00:24:5113:044.6
158VASYA Dudnikov 151M 18-2425M 15100:00:0001:05:2101:05:27.3001:05:27.55+00:24:5613:054.6
159LARSSON Madeleine 792Team Solid SwedenW 35-391K 800:00:0101:05:2301:05:29.1501:05:30.95+00:25:0013:054.6
160REZNIK Anton 54RussiaM Elite48M 15200:00:0201:05:5901:06:04.1001:06:06.20+00:25:3513:124.5
161KERSTEN Max 190Outdoor ValleyM 18-2426M 15300:00:0201:06:0201:06:06.7001:06:09.55+00:25:3813:134.5
162BINDSLEV Thomas Gregers 950M Journeyman2M 15400:00:0401:06:1701:06:22.3501:06:26.35+00:25:5513:164.5
163MIRA Lorena González 101W Elite7K 900:00:0101:06:4001:06:44.8001:06:46.55+00:26:1513:214.5
164CIEPIELA Jan 166M 18-2427M 15500:00:0201:06:4501:06:57.8001:07:00.15+00:26:2913:234.5
165BOARDER Robert 567M 40-446M 15600:00:0201:07:1101:07:15.2501:07:17.65+00:26:4613:274.5
166KRAUCHANKA Aliaksandr 521M 35-391M 15700:00:0201:07:1301:07:18.1501:07:20.60+00:26:4913:274.5
167PEHTSERAVA Tatsiana 762W 30-341K 1000:00:0201:07:2501:07:31.9501:07:34.70+00:27:0313:304.4
168LENOIR Cyril 260M 25-2940M 15800:00:0101:07:2601:07:33.4501:07:34.90+00:27:0413:304.4
169ZDEB Maciek 160M 18-2428M 15900:00:0201:07:5001:07:54.7001:07:57.45+00:27:2613:354.4
170BUCCARELLA Luca 185M 18-2429M 16000:00:0201:07:5401:07:59.5001:08:02.00+00:27:3113:364.4
171ŁUKASZ Lorenc 568M 40-447M 16100:00:0001:08:4701:08:53.6501:08:53.65+00:28:2213:464.4
172GERICH Jan Von 611M 40-448M 16200:00:0201:09:0401:09:07.6001:09:10.05+00:28:3913:494.3
173MIKHINA Anastasia 85W Elite8K 1100:00:0101:09:2001:09:24.1501:09:25.50+00:28:5413:524.3
174ECHEVERRIA Asier Landart 30DENONTZATM Elite49M 16300:00:0001:09:2001:09:26.5001:09:27.35+00:28:5613:534.3
175KOSIŃSKI Jakub 167M 18-2430M 16400:00:0201:09:3101:09:37.0501:09:39.40+00:29:0813:554.3
176MARTIN Darren 300M 25-2941M 16500:00:0301:09:3101:09:36.4501:09:39.50+00:29:0813:554.3
177POWELL Alf 660M 13-177M 16600:00:0101:09:4001:09:45.1501:09:47.10+00:29:1613:574.3
178SZCZEPANIAK Marcin 454xRunnersM 35-392M 16700:00:0101:09:4501:09:50.1501:09:51.90+00:29:2113:584.3
179SRNSKÝ Daniel 189M 18-2431M 16800:00:0201:09:5401:09:58.7001:10:01.45+00:29:3013:594.3
180RAMOS Paula Esteiro 784W 35-392K 1200:00:0201:10:0901:10:15.2501:10:17.40+00:29:4614:034.3
181GARNIER Anouk 111W Elite9K 1300:00:0101:10:2801:10:32.6501:10:34.15+00:30:0314:064.3
182VEPŘEK Martin 256M 25-2942M 16900:00:0201:10:3101:10:35.5501:10:37.65+00:30:0614:074.3
183HANSEN Jonas 259M 25-2943M 17000:00:0201:10:3301:10:39.0001:10:41.45+00:30:1014:074.2
184STEENSGAARD Ida Mathilde 92W Elite10K 1400:00:0101:10:3701:10:41.7501:10:43.65+00:30:1214:084.2
185VRIES Lisan De 811Familyfit OCR teamW 40-442K 1500:00:0201:10:3801:10:43.2001:10:46.00+00:30:1514:084.2
186DAMKOT Tom 661M 13-178M 17100:00:0101:10:3701:11:07.1501:11:08.90+00:30:3814:134.2
187DIJKSTRA Dooitze 562Team Hang-On the NetherlandsM 35-393M 17200:00:0201:11:3301:11:38.6501:11:41.55+00:31:1014:194.2
188RACZEK Radosław 233Gorący Potok Team- Podhalańskie DzikiM 25-2944M 17300:00:0101:11:3501:11:40.0001:11:41.75+00:31:1014:204.2
189LINDSGREN Christina 803W 40-443K 1600:00:0201:11:4001:11:45.4501:11:48.20+00:31:1714:214.2
190NILSSON Erik 136M 18-2432M 17400:00:0001:11:4501:11:52.5501:11:52.70+00:31:2114:224.2
191ROBBEMOND Robin 842Team Hang-On the NetherlandsM 45-496M 17500:00:0201:11:4801:11:53.7001:11:55.75+00:31:2414:224.2
192WOROBIEWA Jekatierina 773W 30-342K 1700:00:0301:11:5401:11:58.5001:12:01.90+00:31:3114:234.2
193BURÉN Johan 481Karlshamn OCRM 35-394M 17600:00:0101:12:0001:12:05.7501:12:07.65+00:31:3614:254.2
194KURACH Stanislaw 871Dziady OCRM 50-544M 17700:00:0301:12:3101:12:34.9501:12:37.95+00:32:0714:304.1
195MARTIN Astrid 732W 25-291K 1800:00:0101:12:3101:12:37.4501:12:38.85+00:32:0814:314.1
196JOZEFIAK Lukasz 453xRunnersM 35-395M 17800:00:0201:12:3301:12:38.5001:12:40.65+00:32:0914:314.1
197KAMIESHKOV Denys 602M 40-449M 17900:00:0201:12:3701:12:42.2501:12:45.05+00:32:1414:324.1
198SCHWEIGERT Matthias 288M 25-2945M 18000:00:0301:12:4601:12:51.7001:12:54.90+00:32:2414:344.1
199HOWARD John 51M Elite50M 18100:00:0301:12:5101:12:56.9501:13:00.25+00:32:2914:354.1
200WAŁDOWSKI Dominik 459M 35-396M 18200:00:0201:13:1901:13:25.2001:13:27.75+00:32:5614:414.1
201DORNYI Tamás 178M 18-2433M 18300:00:0101:13:2201:13:27.0501:13:29.00+00:32:5814:414.1
202MONZON Imre 49M Elite51M 18400:00:0001:13:3001:13:35.8501:13:35.85+00:33:0514:434.1
203BUENK Peter 595Team Outdoor OCRM 40-4410M 18500:00:0201:13:4301:13:48.5001:13:50.65+00:33:1914:454.1
204RIECHERT Viola 81Mud Monkeys OCR TeamW Elite11K 1900:00:0101:13:4701:13:51.6501:13:53.25+00:33:2214:464.1
205WISSING Arjan 470VudA Obstacle TeamM 35-397M 18600:00:0101:14:2701:14:32.5501:14:34.35+00:34:0314:544
206WIKTOROWICZ Mariusz 566RMF4RT GladiatorsM 40-4411M 18700:00:0201:14:2901:14:37.7001:14:39.85+00:34:0914:554
207MICHEL Jérémy 62M Elite52M 18800:00:0201:14:4701:14:51.9501:14:53.95+00:34:2314:584
208ГОВОРОВ Андрей 58M Elite53M 18900:00:0201:14:5001:14:55.3501:14:57.35+00:34:2614:594
209MADSEN Tommy 450GRIPEN OCRM 35-398M 19000:00:0101:14:5201:14:57.6001:14:59.45+00:34:2814:594
210WRIGHT Jason 836M 45-497M 19100:00:0101:15:2701:15:32.7501:15:34.60+00:35:0315:064
211ŠULDA Jakub 188M 18-2434M 19200:00:0201:15:3101:15:37.5001:15:39.50+00:35:0815:074
212LEVERAAS Katrine Haaland 709Tough Race SwedenW 25-292K 2000:00:0101:15:3701:15:40.8501:15:42.55+00:35:1115:084
213LISOWSKI Grzegorz 458SOCIOS SILESIAM 35-399M 19300:00:0101:16:0001:16:05.1501:16:07.10+00:35:3615:133.9
214SJÖLIN Johan 376M 30-3421M 19400:00:0301:16:1601:16:21.7501:16:24.80+00:35:5315:163.9
215ESPINOSA Joaquín Malo 581M 40-4412M 19500:00:0101:16:2901:16:34.1001:16:35.90+00:36:0515:183.9
216САПАТОВ Константин 553M 35-3910M 19600:00:0201:17:1201:17:16.8001:17:19.45+00:36:4815:273.9
217CRUZ Sebastien 486M 35-3911M 19700:00:0201:17:1601:17:22.2501:17:24.40+00:36:5315:283.9
218ALFREDSSON Tobias 620M 40-4413M 19800:00:0201:17:2601:17:30.3001:17:32.50+00:37:0115:303.9
219CANACCINI Denis 572M 40-4414M 19900:00:0101:17:3001:17:34.1001:17:35.95+00:37:0515:303.9
220MARUSZEWSKI Marcin 455NEXTREMEM 35-3912M 20000:00:0101:17:3801:17:42.3501:17:43.90+00:37:1315:323.9
221GIESBERTS Valérie 891Team Hang-On the NetherlandsW 13-171K 2100:00:0201:17:4101:17:45.5501:17:48.15+00:37:1715:333.9
222CAPPELEN Dan 549#3KløverenOCRM 35-3913M 20100:00:0901:17:3401:17:40.5501:17:49.65+00:37:1815:323.9
223MAROZ Artsiom 321M 30-3422M 20200:00:0301:17:4101:17:46.4501:17:49.90+00:37:1915:333.9
224KASZA Rafal 456Husaria Race TeamM 35-3914M 20300:00:0101:17:4801:17:54.2001:17:55.35+00:37:2415:343.9
225FIGUEIREDO Rui Pedro Cruz 213M 25-2946M 20400:00:0101:17:5001:18:08.1001:18:09.90+00:37:3915:373.8
226ANDRESEN Petter 872Team OCR NorwayM 50-545M 20500:00:0201:18:0601:18:11.9001:18:14.05+00:37:4315:383.8
227REGNELL Fredrick 326M 30-3423M 20600:00:0301:18:0901:18:14.1001:18:17.45+00:37:4615:383.8
228LOMNICKÁ Tereza 682W 18-241K 2200:00:0201:18:1901:18:24.4001:18:27.35+00:37:5615:413.8
229BENTO Toni 600M 40-4415M 20700:00:0301:18:3301:18:39.5501:18:42.75+00:38:1115:433.8
230HANSSON Rickard 615GRIPEN OCRM 40-4416M 20800:00:0301:18:3501:18:39.7501:18:42.80+00:38:1115:433.8
231TOMASZ Komarnicki 530GRUBIORZE LOTAJOMM 35-3915M 20900:00:0201:18:5101:18:56.7001:18:58.95+00:38:2815:473.8
232CIMLER Jiří 55Gladiators CzechM Elite54M 21000:00:0201:19:1201:19:18.6001:19:21.10+00:38:5015:513.8
233GEVEN Twan 666Team Bruggink NLM 13-179M 21100:00:0201:19:1601:19:20.5501:19:22.60+00:38:5115:523.8
234SLUIS Richard 514M 35-3916M 21200:00:0201:19:1601:19:21.4001:19:24.05+00:38:5315:523.8
235YANN Chambert 328SPARTAN LIONSM 30-3424M 21300:00:0301:19:1501:19:20.9001:19:24.25+00:38:5315:523.8
236BATES Daniel 853Team Ultimate OCRM 45-498M 21400:00:0201:19:4001:19:45.9501:19:48.70+00:39:1715:573.8
237RYDSTRÖM Johan 513Karlshamn OCRM 35-3917M 21500:00:0301:20:0801:20:13.9001:20:17.15+00:39:4616:023.7
238DRUIJFF Meike 892W 13-172K 2300:00:0201:20:1901:20:23.4501:20:26.35+00:39:5516:043.7
239LOZANO Miguel Ángel Charro 858M 45-499M 21600:00:0201:20:1901:20:25.8501:20:27.95+00:39:5716:053.7
240PELLUZ Luis 599M 40-4417M 21700:00:0201:20:3001:20:35.5501:20:37.85+00:40:0716:073.7
241LEARY Tony 880M 50-546M 21800:00:0101:20:3701:20:46.7501:20:48.45+00:40:1716:093.7
242LISOWSKI Adam 460SOCIOS SILESIAM 35-3918M 21900:00:0101:20:4501:20:49.7001:20:51.40+00:40:2016:103.7
243PŁÓCIENNIK Piotr 348M 30-3425M 22000:00:0201:21:0901:21:13.6501:21:16.25+00:40:4516:143.7
244OVECHKIN Taras 474M 35-3919M 22100:00:0201:21:0901:21:15.0501:21:17.35+00:40:4616:153.7
245ALEKSEI Giatcintov 462M 35-3920M 22200:00:0101:21:3901:21:44.4501:21:46.30+00:41:1516:213.7
246CHRISTIAN Ramberger 940Team Celtic WarriorM Journeyman3M 22300:00:0201:21:5701:22:06.5001:22:09.15+00:41:3816:253.7
247SCHÜLER Constantin 936M Journeyman4M 22400:00:0201:21:5701:22:06.4001:22:09.35+00:41:3816:253.7
248NIELSEN Søren 432M 30-3426M 22500:00:0301:22:1001:22:14.4501:22:17.50+00:41:4616:263.6
249SAAL Patrick 920Muddy UnicornsM Journeyman5M 22600:00:0301:22:1201:22:22.6001:22:26.30+00:41:5516:283.6
250FAGERSTRÖM Po 586Team SolidM 40-4418M 22700:00:0201:22:2201:22:26.8501:22:29.55+00:41:5816:293.6
251ONOFRIENKO Karina 678W 18-242K 2400:00:0201:22:4201:22:49.2501:22:51.45+00:42:2016:333.6
252ŁUKASZEWSKI Jakub 158Husaria Race TeamM 18-2435M 22800:00:0201:22:5901:23:03.6501:23:05.95+00:42:3516:363.6
253GAWRYLUK Marcin 415M 30-3427M 22900:00:0101:23:0501:23:11.6001:23:13.45+00:42:4216:383.6
254LUNDBERG Sara 764W 30-343K 2500:00:0301:23:1601:23:21.4501:23:25.35+00:42:5416:403.6
255KONARSKI Łukasz 534KONTENER FORMYM 35-3921M 23000:00:0201:23:2501:23:31.2001:23:33.45+00:43:0216:423.6
256TYL Lukáš 374M 30-3428M 23100:00:0301:23:3201:23:38.1001:23:41.55+00:43:1016:433.6
257OLEKSIUK Andrii 467M 35-3922M 23200:00:0101:23:5101:23:56.1501:23:57.55+00:43:2616:473.6
258MAŁEK Rafał 489WATAHAM 35-3923M 23300:00:0201:23:5701:24:01.0001:24:03.95+00:43:3316:483.6
259JAKUBCZAK Marcin 452M 35-3924M 23400:00:0201:24:1001:24:15.7001:24:18.25+00:43:4716:513.6
260CHRISTIAN Ramberger 478Team Celtic WarriorM 35-3925M 23500:00:0201:24:1701:24:23.9501:24:26.50+00:43:5516:523.6
261PODGORSKI Marek 492M 35-3926M 23600:00:0201:24:5101:24:56.2001:24:58.30+00:44:2716:593.5
262KUZMENKO Irina 978W Journeyman1K 2600:00:0201:24:5401:25:00.9001:25:03.45+00:44:3217:003.5
263ENDERBY Rich 464Team OMRMM 35-3927M 23700:00:0201:24:5801:25:04.9501:25:07.00+00:44:3617:013.5
264MÉDARD Olivier 411Les BisonsM 30-3429M 23800:00:0201:25:0401:25:10.0001:25:12.30+00:44:4117:023.5
265SWACZYNSKI Krzysztof 497Husaria Race TeamM 35-3928M 23900:00:0301:25:4101:25:46.6001:25:49.85+00:45:1917:093.5
266TAYLOR Adam 466M 35-3929M 24000:00:0201:25:4501:25:50.1501:25:52.45+00:45:2117:103.5
267SCHYBERG Oscar 556Karlshamn OCRM 35-3930M 24100:00:0301:25:5901:26:03.8001:26:07.15+00:45:3617:123.5
268REKUTIN Ivan 422M 30-3430M 24200:00:0201:26:1601:26:19.6001:26:22.45+00:45:5117:163.5
269HŮRKOVÁ Kristýna 114W Elite12K 2700:00:0101:26:2001:26:25.9001:26:27.70+00:45:5617:173.5
270KRÁSA David 596M 40-4419M 24300:00:0201:26:2601:26:32.3501:26:34.95+00:46:0417:183.5
271JASTRZĘBSKI Piotr 352M 30-3431M 24400:00:0201:26:3001:26:35.9001:26:38.50+00:46:0717:193.5
272NIELSEN Daniel Birk 413M 30-3432M 24500:00:0201:26:3401:26:38.0001:26:40.80+00:46:0917:193.5
273JULIEN Andrew 355TeamMadnessM 30-3433M 24600:00:0301:27:4301:27:50.6001:27:53.65+00:47:2217:343.4
274YANIN Denis 472M 35-3931M 24700:00:0201:28:1701:28:21.4501:28:23.65+00:47:5217:403.4
275STANCLIK Krzysztof 975M Journeyman6M 24800:00:0301:28:1301:28:21.7501:28:25.20+00:47:5417:403.4
276PAPPERMANN Jens 483M 35-3932M 24900:00:0201:28:2001:28:23.5501:28:26.00+00:47:5517:403.4
277KÖNIGOVÁ Lucie 90W Elite13K 2800:00:0201:28:1901:28:25.0501:28:27.15+00:47:5617:413.4
278ÖBERG Robin 354@hejapappaM 30-3434M 25000:00:0201:28:3301:28:38.2001:28:40.60+00:48:0917:433.4
279CAJDERT Johan 482M 35-3933M 25100:00:0201:28:3701:28:49.0501:28:51.70+00:48:2017:453.4
280JAKOBSSON Niklas 323M 30-3435M 25200:00:0301:28:4501:28:50.7501:28:54.40+00:48:2317:463.4
281GALLI Dario 641M 40-4420M 25300:00:0301:29:0101:29:07.7001:29:10.85+00:48:4017:493.4
282BÄR Marcel 404MIT OCR GermanyM 30-3436M 25400:00:0101:29:1101:29:16.7501:29:18.65+00:48:4717:513.4
283BRINKMANN Sabrina 733W 25-293K 2900:00:0201:29:1501:29:19.9001:29:22.25+00:48:5117:523.4
284WIELECHOWSKA Natalia 112W Elite14K 3000:00:0101:28:2701:29:28.3001:29:30.20+00:48:5917:533.4
285HELGERS Mike 598M 40-4421M 25500:00:0201:29:4401:29:48.5001:29:51.20+00:49:2017:573.3
286WHETTON Eddie 473M 35-3934M 25600:00:0101:30:3101:30:36.2501:30:37.70+00:50:0618:073.3
287CSÁSZÁR Vilmos 392OCR GaborTeamM 30-3437M 25700:00:0201:30:3101:30:36.2501:30:39.20+00:50:0818:073.3
288HANSEN Stefan 471#3KløverenOCRM 35-3935M 25800:00:0201:31:0201:31:09.3501:31:11.90+00:50:4118:133.3
289BYRCZEK Michał 349M 30-3438M 25900:00:0201:31:3801:31:42.7001:31:45.30+00:51:1418:203.3
290OLSEN Mads-Christian Brill 351M 30-3439M 26000:00:0201:32:1301:32:18.1501:32:21.05+00:51:5018:273.2
291WILSON Tom 371M 30-3440M 26100:00:0301:32:1501:32:23.9501:32:27.30+00:51:5618:283.2
292GRABARCZYK Wojciech 645Best BeastsM 40-4422M 26200:00:0201:32:2701:32:31.5001:32:33.75+00:52:0218:303.2
293VITALI Hrachov 439M 30-3441M 26300:00:0301:32:3301:32:38.5501:32:42.00+00:52:1118:313.2
294PISARCZYK Karolina 89W Elite15K 3100:00:0201:32:3801:32:42.3501:32:44.95+00:52:1418:323.2
295PETERSEN Thomas 360M 30-3442M 26400:00:0401:32:3701:32:42.7001:32:46.75+00:52:1518:323.2
296FABRÈGUE Rémi 339M 30-3443M 26500:00:0301:32:3701:32:43.7001:32:47.35+00:52:1618:323.2
297KÖNIG Alexander 967M Journeyman7M 26600:00:0201:32:5201:32:57.7001:33:00.65+00:52:2918:353.2
298MARIA Smyshlyaeva 84W Elite16K 3200:00:0101:33:0701:33:13.3501:33:14.90+00:52:4418:383.2
299GARCIA Adrián Ruiz 332THE LAST TRAININGM 30-3444M 26700:00:0301:32:5301:33:16.1501:33:19.40+00:52:4818:393.2
300ANDERSEN Steen 925M Journeyman8M 26800:00:0201:33:3901:33:46.0501:33:48.55+00:53:1718:453.2
301URBANO David Quintana 324TFG/Toni MuscleM 30-3445M 26900:00:0401:34:0001:34:09.1501:34:13.25+00:53:4218:493.2
302ZAPPA Stefano 428White DonkeysM 30-3446M 27000:00:0201:34:0801:34:12.0001:34:14.40+00:53:4318:503.2
303MOROŃ Bartłomiej 381M 30-3447M 27100:00:0201:33:5401:34:32.4001:34:34.40+00:54:0318:543.2
304SKUPIEŃ Tomasz 663M 13-1710M 27200:00:0201:34:3701:34:40.3001:34:43.00+00:54:1218:563.2
305SAVIN Aleksei 331M 30-3448M 27300:00:0301:34:4801:34:51.2001:34:55.00+00:54:2418:583.2
306GOMEZ Manuel Valero 570Leyendas ocr by xforceM 40-4423M 27400:00:0201:34:5001:34:53.9001:34:56.00+00:54:2518:583.2
307BŁĘDZKI Adam 418M 30-3449M 27500:00:0201:35:0301:35:08.9501:35:11.05+00:54:4019:013.2
308CHOŁUJ Łukasz 419M 30-3450M 27600:00:0101:35:0801:35:11.8501:35:13.70+00:54:4219:023.2
309WYSOCKA Klaudia 997Carbon OCR Racing TeamW Journeyman2K 3300:00:0201:35:3001:35:37.8001:35:40.35+00:55:0919:073.1
310KĄKOL Kacper 998M Journeyman9M 27700:00:0201:35:3201:35:40.3001:35:42.95+00:55:1219:083.1
311ANANIN Artem 367M 30-3451M 27800:00:0201:35:4701:35:53.7501:35:56.15+00:55:2519:103.1
312TAKÁČ Vladimír 629M 40-4424M 27900:00:0201:35:5701:36:01.3501:36:04.10+00:55:3319:123.1
313КОХАНЧУК Анастасия 995W Journeyman3K 3400:00:0201:35:5501:36:03.2501:36:05.60+00:55:3419:123.1
314PEDERSEN Brian 616M 40-4425M 28000:00:0501:36:1501:36:23.2001:36:28.80+00:55:5719:163.1
315NIELSEN Dennis 391M 30-3452M 28100:00:0201:36:3901:36:43.5001:36:46.45+00:56:1519:203.1
316CHMIELEWSKI Mariusz 610Grupa Biegowa Czarna BiałostockaM 40-4426M 28200:00:0201:36:5601:37:01.9001:37:04.55+00:56:3319:243.1
317RAMPÍR Jiří 942M Journeyman10M 28300:00:0201:37:0401:37:11.1001:37:13.95+00:56:4319:263.1
318ZIMMER Markus 429M 30-3453M 28400:00:0201:37:1001:37:17.8501:37:20.45+00:56:4919:273.1
319BERTA Paolo 592M 40-4427M 28500:00:0201:37:3701:37:47.0501:37:49.75+00:57:1819:333.1
320PIELATOWSKI Adam 420M 30-3454M 28600:00:0301:37:5601:38:03.0501:38:06.30+00:57:3519:363.1
321BAPTISTE David 356TeamMadnessM 30-3455M 28700:00:0201:38:1001:38:14.8501:38:17.60+00:57:4619:393.1
322GANE Mr Jamie 922M Journeyman11M 28800:00:0301:38:1001:38:16.9501:38:20.10+00:57:4919:393.1
323LYNG Rasmus 916Ocr FightersM Journeyman12M 28900:00:0201:38:3201:38:39.3001:38:41.70+00:58:1019:433
324DUPUIS Jean-Charles 357Swat NordM 30-3456M 29000:00:0201:38:5001:38:57.8501:39:00.60+00:58:2919:473
325KALISZYK Grzegorz 607M 40-4428M 29100:00:0201:38:5301:39:00.8001:39:02.95+00:58:3219:483
326JENSEN Mikkel 946M Journeyman13M 29200:00:0201:38:5801:39:06.3001:39:08.30+00:58:3719:493
327JULIKOWSKI Karol 943M Journeyman14M 29300:00:0301:38:5801:39:09.0501:39:12.10+00:58:4119:493
328WAGNER Pia 724W 25-294K 3500:00:0101:39:0501:39:11.2001:39:12.70+00:58:4119:503
329KAUFMANN Nikolaj 639M 40-4429M 29400:00:0301:39:1301:39:16.4501:39:20.00+00:58:4919:513
330BASIAK Michał 273Hardcorowe WychylylybymyM 25-2947M 29500:00:0301:39:2901:39:34.8001:39:38.55+00:59:0719:553
331SAŁATA Marcin 306M 30-3457M 29600:00:0301:39:3701:39:44.4001:39:47.50+00:59:1619:563
332VOIGT Stephan 603OCR BierathleticsM 40-4430M 29700:00:0301:39:5101:39:58.2001:40:01.45+00:59:3019:593
333LARSSON Toni 282SOCRAM 25-2948M 29800:00:0301:40:3101:40:35.2501:40:39.05+01:00:0820:073
334HÅKONSEN Cato 479The Beast OCR Team menM 35-3936M 29900:00:0201:40:3201:40:37.8501:40:40.55+01:00:0920:073
335PACIOREK Piotr 269Husaria Race TeamM 25-2949M 30000:00:0301:41:3001:41:34.9001:41:38.25+01:01:0720:193
336SULTANOV Shamil 74M Elite55M 30100:00:0201:42:1501:42:20.4501:42:22.75+01:01:5120:282.9
337KMIECIAK Jakub 165Dirty SparrowsM 18-2436M 30200:00:0201:42:1701:42:22.8001:42:25.45+01:01:5420:282.9
338ALEX Fastres 412M 30-3458M 30300:00:0201:42:1801:42:27.0001:42:29.15+01:01:5820:292.9
339SHPYLCHYN Vitalii 958M Journeyman15M 30400:00:0401:43:1601:43:26.5001:43:30.75+01:02:5920:412.9
340NIELSEN Linda 986W Journeyman4K 3600:00:0201:43:4301:43:50.1001:43:53.05+01:03:2220:462.9
341GESSLER Sergej 317Team Outdoor OCRM 30-3459M 30500:00:0301:44:2101:44:28.1501:44:31.20+01:04:0020:532.9
342ALISA Imamova 985W Journeyman5K 3700:00:0201:44:3601:44:44.3501:44:46.95+01:04:1620:562.9
343STANGEL Piotr 957KONTENER FORMYM Journeyman16M 30600:00:0301:46:0101:46:08.4001:46:12.10+01:05:4121:132.8
344BORUC Tomasz 538M 35-3937M 30700:00:0301:46:1501:46:22.6501:46:25.75+01:05:5421:162.8
345VINCK Mark 621M 40-4431M 30800:00:0301:47:0701:47:13.6501:47:16.90+01:06:4621:262.8
346KRAWIEC Robert 624CrossTeam Szczecinek PolskaM 40-4432M 30900:00:0201:47:1101:47:16.9001:47:19.40+01:06:4821:272.8
347SCHUTTRUPS Margreet 772W 30-344K 3800:00:0201:47:5001:47:55.2001:47:58.05+01:07:2721:352.8
348ABRAM Eugeniusz 879M 50-547M 31000:00:0201:48:3801:48:46.7501:48:48.90+01:08:1821:452.8
349WERYK Mateusz 949GRIMPADO/CF3MM Journeyman17M 31100:00:0301:49:1701:49:28.0001:49:31.25+01:09:0021:532.7
350OLSEN Andreas Stahl 951M Journeyman18M 31200:00:0401:49:5401:50:14.7501:50:19.25+01:09:4822:032.7
351BAGER Lars 968M Journeyman19M 31300:00:0401:50:0701:50:16.4501:50:21.10+01:09:5022:032.7
352GERTSEN Carsten 637M 40-4433M 31400:00:0301:50:4601:50:52.7501:50:56.40+01:10:2522:102.7
353LIUTKUS Dainius 337OCR Baltic warriorsM 30-3460M 31500:00:0301:50:5701:51:03.4501:51:06.45+01:10:3522:122.7
354GÖSTA Christian 512EvolutionRaceM 35-3938M 31600:00:0401:50:5701:51:07.5001:51:12.05+01:10:4122:132.7
355WASILEWSKI Artemiusz 931M Journeyman20M 31700:00:0301:52:0101:52:22.0501:52:25.25+01:11:5422:282.7
356MALUENDA Juan 868Team OCR Elite ApparelM 50-548M 31800:00:0101:52:1801:52:24.5501:52:26.35+01:11:5522:292.7
357KUCIEWICZ Jarosław 926M Journeyman21M 31900:00:0301:52:1701:52:22.9001:52:26.60+01:11:5522:282.7
358CASADO Nieves 996W Journeyman6K 3900:00:0301:52:2501:52:32.5501:52:35.55+01:12:0422:302.7
359JESSING Iben 710W 25-295K 4000:00:0001:52:5101:52:55.1001:52:56.05+01:12:2522:352.7
360POLUJANSKIS Ramūnas 964OCR Baltic warriorsM Journeyman22M 32000:00:0201:53:3401:53:40.8001:53:43.65+01:13:1222:442.6
361PEÑA Miguel 252M 25-2950M 32100:00:0201:54:0501:54:10.9501:54:13.35+01:13:4222:502.6
362SRNSKÁ Petra 994W Journeyman7K 4100:00:0401:54:5501:55:04.3001:55:08.35+01:14:3723:002.6
363DAM Nikolaj M 929M Journeyman23M 32200:05:0301:50:0701:50:16.5501:55:20.00+01:14:4922:032.7
364BARANAUSKAS Darius 372OCR Baltic warriorsM 30-3461M 32300:00:0301:55:2301:55:27.4501:55:30.50+01:14:5923:052.6
365CHRISTOPHER Bailly 218M 25-2951M 32400:00:0101:56:1001:56:24.2001:56:25.75+01:15:5423:162.6
366NILSSON Oscar 919Sports Club OCR SwedenM Journeyman24M 32500:00:0401:56:1701:56:23.2501:56:27.50+01:15:5623:162.6
367THONON Simon 390OCR Belgium Wallonia menM 30-3462M 32600:00:0101:57:0301:57:10.6501:57:12.15+01:16:4123:262.6
368MILEHAM Nicky 501Team OMRMM 35-3939M 32700:00:0201:57:5001:57:57.0001:57:59.30+01:17:2823:352.5
369JACIÓW Paweł 275WATAHAM 25-2952M 32800:00:0401:58:3801:58:58.8001:59:02.85+01:18:3223:472.5
370VALERII Kaldin 370M 30-3463M 32900:00:0201:59:3901:59:42.9501:59:45.55+01:19:1423:562.5
371CHRISTENSEN Unni Marie 980Achievers MSTW Journeyman8K 4200:00:0302:01:1102:01:17.9502:01:21.70+01:20:5024:152.5
372JØRGENSEN Michael 932M Journeyman25M 33000:00:0402:01:1902:01:27.0002:01:31.05+01:21:0024:172.5
373BELLINI Giulio 544Anis MuddersM 35-3940M 33100:00:0302:01:4702:01:55.2002:01:58.45+01:21:2724:232.5
374POLETTI Angela 989W Journeyman9K 4300:00:0202:01:5102:02:00.2002:02:02.80+01:21:3124:242.5
375JANOUŠEK Petr 183Gladiators CzechM 18-2437M 33200:00:0202:01:5902:02:05.1502:02:08.10+01:21:3724:252.5
376MARTINAITIS Juozas 965OCR Baltic warriorsM Journeyman26M 33300:00:0302:01:5802:02:04.8002:02:08.25+01:21:3724:252.5
377SPÅNG Malin 815W 40-444K 4400:00:0302:01:5902:02:07.5002:02:10.65+01:21:3924:252.5
378HÖGSTRÖM Andreas 545Figeholms BryggeriM 35-3941M 33400:00:0302:02:3402:02:41.4002:02:45.10+01:22:1424:322.4
379KARLSSON Line 976W Journeyman10K 4500:00:0302:03:3102:03:39.8502:03:43.15+01:23:1224:442.4
380DITLEV Ditte B. 981W Journeyman11K 4600:00:0302:03:3102:03:39.9502:03:43.55+01:23:1224:442.4
381KWIATKOWSKI Hubert 937Gorący Potok Team- Podhalańskie DzikiM Journeyman27M 33500:00:0202:03:3502:03:42.3502:03:44.45+01:23:1324:442.4
382NOVIN Thomas 503GRIPEN OCRM 35-3942M 33600:00:0202:05:0102:05:04.1002:05:06.85+01:24:3625:002.4
383ROMANOWSKI Łukasz 494Husaria Race TeamM 35-3943M 33700:00:0302:04:5702:05:04.3002:05:07.90+01:24:3725:002.4
384AARHUS Mark Kofoed 930M Journeyman28M 33800:00:0002:05:4702:05:58.2502:05:58.25+01:25:2725:112.4
385PRZĄDKA Marcin 927WATAHAM Journeyman29M 33900:00:0102:08:0302:08:10.7002:08:12.35+01:27:4125:382.3
386JÓZWIK Adrian 121NEXTREMEM 18-2438M 34000:00:0002:08:1202:08:18.9502:08:19.60+01:27:4825:392.3
387PODBIELSKA Gosia 987Extreme Warrior ParkW Journeyman12K 4700:00:0402:08:1202:08:20.1502:08:24.55+01:27:5325:402.3
388ANTONINA 984W Journeyman13K 4800:00:0302:08:3602:08:44.8002:08:47.95+01:28:1725:442.3
389BRØDLØS Kristian 542M 35-3944M 34100:00:0902:09:0402:09:08.7502:09:17.90+01:28:4725:492.3
390POLAŃSKI Paweł 928WATAHAM Journeyman30M 34200:00:0002:09:2102:09:27.7502:09:27.75+01:28:5625:532.3
391GÓRSKI Emil 947Husaria Race TeamM Journeyman31M 34300:00:0302:10:1702:10:33.8502:10:36.90+01:30:0626:062.3
392PEDERSEN Peder Ejsing 294OCRHolstebroM 25-2953M 34400:00:0302:10:2802:10:33.0002:10:36.95+01:30:0626:062.3
393LAENEN René 614M 40-4434M 34500:00:0202:10:3202:10:36.9502:10:39.60+01:30:0826:072.3
394MISSALA Michał 948POWER TRAININGM Journeyman32M 34600:00:0202:10:4602:10:52.3002:10:55.20+01:30:2426:102.3
395PETERSEN Ulf 508Team SolidM 35-3945M 34700:00:0202:11:0402:11:13.7002:11:16.00+01:30:4526:142.3
396MILHANO Carlos 873M 50-549M 34800:00:0102:11:1202:11:20.4002:11:22.25+01:30:5126:162.3
397RIBOUD Camille 106Tr1be OCR TeamW Elite17K 4900:00:0102:12:2602:12:32.9002:12:34.55+01:32:0326:302.3
398PYSZNIAK Paweł 493M 35-3946M 34900:00:0202:12:3402:12:38.7002:12:41.20+01:32:1026:312.3
399DEDIEU Semi 403M 30-3464M 35000:00:0102:13:1302:13:25.5502:13:27.35+01:32:5626:412.2
400BERGSTRÖM Robert 630Sports Club OCRM 40-4435M 35100:00:0302:14:0702:14:13.2502:14:16.85+01:33:4626:502.2
401MILBRANT Michał 935RMF4RT GladiatorsM Journeyman33M 35200:00:0102:14:3402:14:40.4002:14:42.25+01:34:1126:562.2
402FIAŁKOWSKI Łukasz 962M Journeyman34M 35300:00:0302:15:1402:15:23.1002:15:26.25+01:34:5527:042.2
403LIBERADZKI Marcin 961M Journeyman35M 35400:00:0402:15:1402:15:27.8502:15:32.10+01:35:0127:052.2
404DRZEWOWSKA Marlena 993Tree CrewW Journeyman14K 5000:00:0202:15:1002:15:40.9502:15:43.50+01:35:1227:082.2
405RYBAK Paulina 988W Journeyman15K 5100:00:0202:15:2702:15:41.4002:15:43.70+01:35:1227:082.2
406RAYNAUD Jimmy 240TR1BU OCRM 25-2954M 35500:00:0102:15:4002:15:44.9502:15:46.55+01:35:1527:092.2
407REMMER Thomas 434M 30-3465M 35600:06:0202:10:0402:10:09.4502:16:12.40+01:35:4126:022.3
408SØRENSEN Sara 991W Journeyman16K 5200:00:0302:16:4002:16:47.4502:16:51.15+01:36:2027:212.2
409NIELSEN Heidi Højgaard 992W Journeyman17K 5300:00:0302:16:4002:16:47.6002:16:51.30+01:36:2027:212.2
410GULLAUD Audric 921M Journeyman36M 35700:00:0302:16:5902:17:07.5002:17:11.05+01:36:4027:252.2
411SOLVANG Solveig 990W Journeyman18K 5400:00:0402:17:0102:17:09.4002:17:13.40+01:36:4227:252.2
412SZKLARSKI Przemysław 974M Journeyman37M 35800:00:0302:17:1502:17:38.3002:17:42.00+01:37:1127:312.2
413WOJEWÓDKA Krystian 417Etrans TeamM 30-3466M 35900:00:0202:17:4302:17:50.3002:17:52.35+01:37:2127:342.2
414MUL Elisa 896W 13-173K 5500:00:0202:18:2002:18:23.9502:18:26.80+01:37:5527:402.2
415CRESPO Antonio Rubio 254M 25-2955M 36000:00:0202:18:2702:18:31.3502:18:33.85+01:38:0327:422.2
416ROETS Elio 518OCR BELGIUMM 35-3947M 36100:00:0302:19:0102:19:11.4002:19:14.50+01:38:4327:502.2
417TRUSZCZYŃSKI Robert 970M Journeyman38M 36200:00:0302:19:0702:19:17.0502:19:20.25+01:38:4927:512.2
418RONDE Naomi De 983W Journeyman19K 5600:00:0202:19:1602:19:20.6502:19:22.95+01:38:5227:522.2
419NIELSEN Cecilie Julius 979OCRHolstebroW Journeyman20K 5700:00:0202:19:3402:19:41.7502:19:44.30+01:39:1327:562.1
420ZIOBRO Chris 944Memories Not Dreams OCR TeamM Journeyman39M 36300:00:0302:19:0802:20:09.1002:20:12.60+01:39:4128:012.1
421ROGÓŻ Adrian 938M Journeyman40M 36400:00:0202:21:2202:21:28.5002:21:31.15+01:41:0028:172.1
422TRUJILLO Fernando Pajuelo 242M 25-2956M 36500:00:0202:22:0002:22:05.3502:22:07.60+01:41:3628:252.1
423FISCHER Oliver 293M 25-2957M 36600:00:0302:23:1302:23:18.3002:23:21.95+01:42:5128:392.1
424BJERRE Secilie Vicktoria 814W 40-445K 5800:00:0202:25:0702:25:13.0002:25:15.85+01:44:4529:022.1
425WAWRZYNIAK Slawo 939M Journeyman41M 36700:00:0202:25:0802:25:16.0002:25:18.40+01:44:4729:032.1
426KOKOWSKI Mariusz 955Tree CrewM Journeyman42M 36800:00:0302:25:0602:25:17.0502:25:20.75+01:44:4929:032.1
427MIKOŚ Adam 954Husaria Race TeamM Journeyman43M 36900:00:0302:25:2902:25:44.4502:25:47.60+01:45:1629:082.1
428BOŚ Tomasz 941M Journeyman44M 37000:00:0202:25:3602:26:10.4502:26:13.15+01:45:4229:142.1
429BERGLING Daniel 963M Journeyman45M 37100:00:0302:26:0702:26:21.1502:26:24.65+01:45:5329:162
430JOULIN Stefan 952Sports Club OCRM Journeyman46M 37200:00:0402:26:0602:26:22.2502:26:26.30+01:45:5529:162
431PIERZGALSKI Piotr 956M Journeyman47M 37300:00:0402:26:2602:26:34.5002:26:39.35+01:46:0829:192
432SARLEJ Robert 933M Journeyman48M 37400:00:0202:26:3402:26:40.0002:26:42.10+01:46:1129:202
433DĄBROWSKI Adam 953M Journeyman49M 37500:00:0302:26:3102:26:39.2502:26:42.70+01:46:1129:192
434LIPIECKI Jacek 969M Journeyman50M 37600:00:0402:26:5202:26:58.4502:27:02.45+01:46:3129:232
435IDCZAK Piotr 345M 30-3467M 37700:00:0202:26:5802:27:04.9002:27:07.85+01:46:3729:252
436HEYWOOD Laura 810Team OMRMW 40-446K 5900:00:0202:27:1302:27:17.5002:27:20.30+01:46:4929:272
437KHALEF Dali 195TEAM MADNESSM 25-2958M 37800:00:0202:28:3302:28:38.7502:28:41.35+01:48:1029:432
438NIKIEL Dariusz 972M Journeyman51M 37900:00:0402:29:1102:29:27.5502:29:31.85+01:49:0129:532
Przekroczony limit czasu: 02:30:00
439TOPA Radosław 924M Journeyman52M 38000:00:0202:31:2402:31:32.5502:31:34.85+01:51:0430:182
440LÓPEZ Julio 959M Journeyman53M 38100:00:0202:33:24.9502:33:27.75+01:52:5630:412
441ZIMOŃ Norbert 385Wataha Grupa TreningowaM 30-3468M 38200:00:0202:33:3802:33:43.2502:33:45.55+01:53:1430:442
442KOLEGOWICZ Damian 276M 25-2959M 38300:00:0302:34:0902:34:13.8002:34:17.45+01:53:4630:501.9
443WROBBEL Michael 835M 45-4910M 38400:00:0202:43:5402:44:05.3002:44:07.80+02:03:3632:491.8
444GAWIN Krzysztof 495BeFit24TeamM 35-3948M 38500:00:0202:49:2202:49:28.7502:49:31.50+02:09:0033:531.8
445KUBIESA Jakub 491Husaria Race TeamM 35-3949M 38600:00:0302:49:5402:49:59.9002:50:03.60+02:09:3234:001.8
446SZEPANSKI Michael 187M 18-2439M 38700:00:0202:50:5902:51:04.0502:51:06.65+02:10:3534:121.8
447KALINOWSKA Wioletta 817Best BeastsW 40-447K 6000:00:0302:51:2602:51:33.8502:51:37.15+02:11:0634:181.7
448KULIK Sergey 552M 35-3950M 38800:00:0202:54:5002:54:55.0502:54:57.20+02:14:2634:591.7
449YVES Pugliari 832OCR BELGIUMM 45-4911M 38900:00:0202:55:4402:55:58.8502:56:01.05+02:15:3035:111.7
450PALMA Pedro 358M 30-3469M 39000:00:0303:06:1303:06:24.3003:06:28.05+02:25:5737:171.6
451DIJK Sandra Van 808Hang On The NetherlandsW 40-448K 6100:00:0203:25:0103:25:06.8003:25:09.70+02:44:3841:011.5
452OLIN Kenneth 589M 40-4436M 39100:00:0003:28:02.0003:28:02.00+02:47:3141:361.4
453RODRIGUES Alexandre 238M 25-2960M 39200:00:0203:29:4103:29:50.5503:29:53.30+02:49:2241:581.4
454BAGROWSKA Agata 727W 25-296K 6200:00:0003:35:5303:36:10.4003:36:10.80+02:55:3943:141.4
455 909  104:15:0001:37:0001:37:06.9005:52:06.90+05:11:3619:253.1
456 908  204:15:0101:39:1601:39:27.0505:54:28.50+05:13:5719:533
DNCKĄKOL Kacper 16Biegowy_świrM Elite00:00:0000:53:3100:53:37.7000:53:38.250:005.6
DNCTOCHKA Artsiom 7M Elite00:00:0100:54:2500:54:32.4500:54:33.850:005.5
DNCСУЗДАЛЕВ Антон 15OCR AcademyM Elite00:00:0101:01:4301:01:55.0501:01:56.100:004.8
DNCFIŠER Rostislav 841M 45-4900:00:0101:06:5601:07:04.0001:07:05.900:004.5
DNCRÖNNBERG Mikael 579Team ProworkM 40-4400:00:0201:10:1201:10:17.7001:10:20.300:004.3
DNCBUGYS Renaldas 336M 30-3400:00:0301:12:3301:12:40.3501:12:43.350:004.1
DNCARVIDSSON Sara 722GRIPEN OCRW 25-2900:00:0101:15:5101:16:05.4001:16:07.250:003.9
DNCOCHERETIUK Andrii 225M 25-2900:00:0101:16:2301:16:29.5501:16:31.350:003.9
DNCBRÄHMIG Mattes 363M 30-3400:00:0301:16:4201:16:49.1501:16:52.150:003.9
DNCT. Martin 446M 30-3400:00:0301:19:2401:19:34.2501:19:37.500:003.8
DNCHERK Erik Van 484M 35-3900:00:0101:21:0201:21:09.2001:21:10.950:003.7
DNCWEETS Marc 884OCR BELGIUMM 55+00:00:0201:22:5701:23:20.0001:23:22.200:003.6
DNCLEVY Philippe 883OCR FlandersM 55+00:00:0201:22:5601:23:19.9001:23:22.600:003.6
DNCARZADUN Jose Maria Peso 28DENONTZATM Elite00:00:0101:23:1701:23:27.0001:23:28.200:003.6
DNCHEIBØ Gunn Elin 905W 45-4900:00:0401:23:4301:23:50.4001:23:54.450:003.6
DNCBELT Rico Van Den 511M 35-3900:00:0101:26:0301:26:18.6001:26:20.550:003.5
DNCOPOLONY Ireneusz 499SOCIOS SILESIAM 35-3900:00:0201:26:0801:26:24.6501:26:26.750:003.5
DNCBENICEWICZ Kacper 257M 25-2900:00:0101:26:5601:27:02.7501:27:04.600:003.4
DNCQVIST Tobias 590M 40-4400:00:0201:27:2401:27:32.0501:27:34.850:003.4
DNCPAL Mario 834RUNTERRAM 45-4900:00:0301:27:4701:27:57.7001:28:00.900:003.4
DNCЗАХАРКИН Сергей 593M 40-4400:00:0201:27:5901:28:02.8501:28:05.000:003.4
DNCBÜHRING Sven 638OCR BierathleticsM 40-4400:00:0301:27:5501:28:02.5501:28:06.100:003.4
DNCSHIROKOV Igor 504GAZPROMBANK OCR TEAMM 35-3900:00:0201:28:1201:28:20.9501:28:23.850:003.4
DNCBAKER Stephen 485M 35-3900:00:0101:28:2801:28:36.6501:28:38.500:003.4
DNCADAMEC Jakub 130M 18-2400:00:0001:28:3101:28:39.4501:28:39.800:003.4
DNCDOUBEK Milan 366M 30-3400:00:0301:28:4601:28:58.6001:29:02.200:003.4
DNCKVIKSTAD Rune 825M 45-4900:00:0201:28:4601:29:05.1001:29:07.650:003.4
DNCSCHÜLER Constantin 509M 35-3900:00:0201:29:1601:29:24.1001:29:26.750:003.4
DNCGREIBIG Michaela 753OpfercrewW 30-3400:00:0301:29:1801:29:28.5001:29:31.800:003.4
DNCKOWALSKI Tomasz 839Husaria Race TeamM 45-4900:00:0301:29:4001:29:49.3501:29:52.400:003.3
DNCHAAN John De 396M 30-3400:00:0201:30:0101:30:08.7001:30:11.150:003.3
DNCADOLFSEN Kristoffer 48M Elite00:00:0201:31:3301:31:42.2501:31:44.650:003.3
DNCGRITSYNA Oleg 862M 50-5400:00:0201:31:5101:31:59.4501:32:01.900:003.3
DNCYUCEL Jeffrey 174OCR BELGIUMM 18-2400:00:0001:32:1801:32:36.7001:32:36.700:003.2
DNCSARABUN Nazar 265M 25-2900:00:0101:32:5901:33:05.5501:33:07.450:003.2
DNCTOMCZYK Andrzej 886M 55+00:00:0301:33:0401:33:19.4501:33:23.400:003.2
DNCŠEDA Radek 591OCRA CZM 40-4400:00:0201:33:3501:33:44.2501:33:47.200:003.2
DNCČERNÝ Vaclav 330M 30-3400:00:0201:33:4401:33:49.5501:33:52.500:003.2
DNCKRAUS Tomáš 546Sunny Gang PlzeňM 35-3900:00:0201:33:4001:34:00.4501:34:02.650:003.2
DNCCHILDS Jake 227M 25-2900:00:0201:33:5901:34:07.6501:34:10.400:003.2
DNCJONSSON Nils 320M 30-3400:00:0201:35:0601:35:14.6501:35:17.450:003.1
DNCJENSEN Michael Degn 543M 35-3900:00:0901:35:2401:35:34.6001:35:43.700:003.1
DNCSPIEKER Alfred 877M 50-5400:00:0201:35:3801:35:46.3501:35:49.050:003.1
DNCGATZ Detlef 874OCR BierathleticsM 50-5400:00:0201:36:0601:36:14.7501:36:17.300:003.1
DNCSCHLAEPFER Tamara 743THORW 30-3400:00:0401:36:0801:36:17.9501:36:21.950:003.1
DNCSOLAKIEWICZ Anna 91BeFit24Team-SpiderwomenTeamW Elite00:00:0101:36:2601:36:34.3001:36:36.200:003.1
DNCGĘBSKI Mariusz 644R.AMBOM 40-4400:00:0201:37:5101:37:54.2501:37:56.800:003.1
DNCBAIA Rafael 468M 35-3900:00:0301:38:0301:38:11.0001:38:14.550:003.1
DNCSYWANYCZ Ireneusz 612PodTrzepakiemM 40-4400:00:0301:38:4201:38:50.0501:38:53.400:003
DNCWILLIS Richard 838M 45-4900:00:0201:39:1001:39:18.3001:39:20.350:003
DNCGUNN Paul 626Team BrighthammerM 40-4400:00:0201:39:2501:39:30.5501:39:33.200:003
DNCSOUSA Bruno 577OCR Portugal LABM 40-4400:00:0301:40:0301:40:13.0001:40:16.400:003
DNCROLIN Erika 728Team ValkyriaW 25-2900:00:0101:40:1401:40:20.9501:40:22.900:003
DNCMANTYCKI Rafał 234M 25-2900:00:0101:40:1601:40:23.4501:40:25.350:003
DNCLARNEMARK David 406M 30-3400:00:0201:40:3401:40:43.5501:40:45.700:003
DNCMOBERG Linus 443AB KARL HEDIN IFM 30-3400:00:0201:40:4401:40:49.5001:40:52.350:003
DNCGRANT Jane 904W 45-4900:00:0301:41:1401:41:21.1001:41:24.300:003
DNCWONNEBERGER Lars 465MudbustersM 35-3900:00:0201:42:0301:42:18.0501:42:20.300:002.9
DNCBURDZY Daniel 169Bestie OCR LegionowoM 18-2400:00:0101:42:1601:42:23.7501:42:25.550:002.9
DNCMISKA Daniel 168Enjoy by sportM 18-2400:00:0101:42:3801:42:47.6501:42:49.500:002.9
DNCBŘÍZOVÁ Jana 725W 25-2900:00:0001:42:4501:42:59.1001:42:59.850:002.9
DNCDAHLBÄCK Malin 674EFI OCR TEAMW 18-2400:00:0201:43:1901:43:26.4001:43:28.400:002.9
DNCKOZA Robert 855Carbon OCR Racing TeamM 45-4900:00:0301:43:1101:43:28.6001:43:31.650:002.9
DNCKASCHE Denny 329M 30-3400:00:0301:43:1401:43:31.0001:43:34.850:002.9
DNCBALASHOV Roman 314GAZPROMBANK OCR TEAMM 30-3400:00:0201:43:3201:43:36.7001:43:39.250:002.9
DNCSIMMONS John 186Renegade RunnersM 18-2400:00:0201:44:0901:44:14.9501:44:17.850:002.9
DNCGERGELY Szabó Bálint 416OCR GaborTeamM 30-3400:00:0201:44:0701:44:16.2001:44:18.700:002.9
DNCRICHTER Lukáš 558M 35-3900:00:0201:44:1101:44:18.4501:44:20.700:002.9
DNCRAVENZWAAIJ Jeroen Van 436M 30-3400:00:0201:44:1201:44:21.1501:44:23.900:002.9
DNCBRONS Sonny 302Family Fit Indoor SurvivalM 25-2900:00:0301:44:2601:44:35.1501:44:38.350:002.9
DNCSPRUTTA Mateusz 303Carbon OCR Racing TeamM 25-2900:00:0301:44:1501:44:35.2501:44:38.450:002.9
DNCSAMTLEBEN Thomas Hebbe 643Team Celtic WarriorM 40-4400:00:0201:44:5701:45:17.8001:45:20.450:002.8
DNCLUNDIN Alexandra 761W 30-3400:00:0301:46:2201:46:31.3501:46:35.050:002.8
DNCCAFÉ Nuno 625LynxteamM 40-4400:00:0101:46:2501:46:38.9001:46:40.750:002.8
DNCKORTHOUT Bruce 296Atlas Outdoor TrainingM 25-2900:00:0301:47:3601:47:42.6501:47:45.850:002.8
DNCARTZ Claus 387M 30-3400:00:0201:47:4701:47:57.2501:47:59.250:002.8
DNCSCHMIDT Holger 848Herakliden-Team DeutschlandM 45-4900:00:0201:47:5101:47:58.8001:48:01.550:002.8
DNCHORSCH Stefan 435OCRCrewDuisburgM 30-3400:00:0201:48:0201:48:15.8501:48:18.650:002.8
DNCFELLDIN Jenny 723W 25-2900:00:0101:48:2801:48:33.5501:48:35.500:002.8
DNCKASULIS Gerald 250TEAM MADNESSM 25-2900:00:0101:48:4801:48:54.5001:48:55.700:002.8
DNCROTH Zdeněk 350M 30-3400:00:0201:48:4701:48:55.8001:48:58.650:002.8
DNCBRUECKER Christoph 555OCR Crew DuisburgM 35-3900:00:0201:49:5501:50:04.2001:50:06.950:002.7
DNCHORBACH Lars 431M 30-3400:00:0201:50:4201:50:49.1001:50:51.800:002.7
DNCKOLB Lars 362Fit for MeM 30-3400:00:0301:50:4601:50:55.0001:50:58.750:002.7
DNCBENTLEY Andy 617M 40-4400:00:0301:51:1101:51:19.2501:51:22.500:002.7
DNCGRIFFITHS James 440Cliff Lakes OCRM 30-3400:00:0201:51:1401:51:20.7001:51:23.150:002.7
DNCBATE Charlotte 747W 30-3400:00:0301:51:2201:51:28.9501:51:32.550:002.7
DNCHENNEKEN Claudia Maria 88W Elite00:00:0101:51:3401:51:41.0001:51:42.650:002.7
DNCKHOSCHNUD Ramin 463DAS GRIMSGRAMSM 35-3900:00:0201:51:3201:51:43.6001:51:46.350:002.7
DNCRYLKOVA Katerina 757OCRA CZW 30-3400:00:0001:51:4401:51:51.6501:51:51.650:002.7
DNCVERDIESEN Marloes 684W 18-2400:00:0201:51:5801:52:07.6001:52:09.950:002.7
DNCJANSEN Roel 849M 45-4900:00:0201:52:1401:52:20.7501:52:23.100:002.7
DNCALEXANDRE Renato 251M 25-2900:00:0201:52:1401:52:22.7001:52:25.400:002.7
DNCCASTRO Christian Danis 138M 18-2400:00:0001:52:1701:52:36.5001:52:37.050:002.7
DNCKUDYMETS Maksym 68M Elite00:00:0201:52:3701:52:44.5001:52:46.500:002.7
DNCSZTAJER Bartek 537Lubię Burpees'yM 35-3900:00:0201:52:4201:52:46.7001:52:49.350:002.7
DNCSERNBO Jens 876M 50-5400:00:0201:52:4901:52:59.4501:53:01.800:002.7
DNCDOMORÁD Vojtěch 408M 30-3400:00:0201:52:5301:53:01.2501:53:03.850:002.7
DNCPRZYSTAW Maxim 425OpfercrewM 30-3400:00:0401:53:0001:53:09.4501:53:13.750:002.7
DNCPUTMAN David 844VudA Obstacle TeamM 45-4900:00:0101:53:1901:53:28.0501:53:29.900:002.6
DNCRANGNAU Olga 714W 25-2900:00:0201:53:2301:53:28.9501:53:31.100:002.6
DNCDUURSMA Paul 837M 45-4900:00:0201:53:2301:53:30.0501:53:32.950:002.6
DNCROEFFAERS Sander 241M 25-2900:00:0101:53:3901:53:50.0001:53:51.450:002.6
DNCBEELEN Timothy Van 318M 30-3400:00:0301:54:0501:54:10.9001:54:14.400:002.6
DNCHOCHSTEIN Dirk 623OCR-PACEMAKERSM 40-4400:00:0301:54:2601:54:37.6001:54:40.950:002.6
DNCMARTÍNEZ Rafael 217M 25-2900:00:0101:54:3401:54:40.7501:54:42.150:002.6
DNCTAHIROVIC Adna 676W 18-2400:00:0101:54:3301:54:41.1001:54:43.050:002.6
DNCALEXANDER Alexander 828M 45-4900:00:0201:54:5901:55:06.4001:55:08.600:002.6
DNCJÜRGENS Friedrich 830M 45-4900:00:0201:55:1801:55:36.2501:55:38.450:002.6
DNCMITCHELL Alexander 571M 40-4400:05:0201:50:2701:50:36.0001:55:38.800:002.7
DNCPELLA Kristina 737W 25-2900:00:0101:55:3001:55:45.3001:55:46.350:002.6
DNCFELLDIN Markus 247M 25-2900:00:0201:55:5701:56:03.7001:56:06.450:002.6
DNCJONES Holly 768W 30-3400:00:0301:56:0601:56:27.6501:56:31.550:002.6
DNCHEIMBURG Stefan Von 609UrbanRunningM 40-4400:00:0401:56:2401:56:34.7001:56:38.850:002.6
DNCCOHEN Rebecca 910W 50-5400:00:0401:56:3101:56:39.2001:56:43.500:002.6
DNCSAMOW Corinna 907UrbanRunningW 45-4900:00:0301:56:3601:56:42.7501:56:46.250:002.6
DNCRAMPÍROVÁ Petra 789W 35-3900:00:0201:56:3801:56:46.2001:56:48.550:002.6
DNCSCHREUDER Myrte 766W 30-3400:00:0301:56:5901:57:05.2001:57:08.950:002.6
DNCSTØLEN Gunhild 696W 18-2400:00:0201:57:0001:57:10.4001:57:12.450:002.6
DNCRIHA Zdenek 444Team Czech RepublicM 30-3400:00:0201:57:1401:57:20.8501:57:23.550:002.6
DNCMÜLLERS Kai 634OCR MunichM 40-4400:00:0201:57:2801:57:36.2001:57:39.150:002.6
DNCKINDBOM Aron 145M 18-2400:00:0101:57:5501:58:00.4001:58:01.450:002.5
DNCWALTHER Oliver 636OCR MunichM 40-4400:00:0301:57:5701:58:05.0001:58:08.000:002.5
DNCPCHELIAKOV Aleksandr 205GAZPROMBANK OCR TEAMM 25-2900:00:0201:58:0101:58:06.5501:58:09.150:002.5
DNCENTICKNAP Colin 578Team XM 40-4400:00:0301:58:0301:58:13.1501:58:16.600:002.5
DNCKUŽELÍKOVÁ Zuzana 715W 25-2900:00:0101:58:1101:58:17.4001:58:18.950:002.5
DNCKUNZMANNOVÁ Eva 688W 18-2400:00:0201:58:1401:58:20.7501:58:23.550:002.5
DNCBUKSZYŃSKI Jano 451M 35-3900:00:0101:58:1601:58:22.4501:58:24.150:002.5
DNCESTIVAL Julien 515M 35-3900:00:0301:58:1501:58:23.3501:58:26.800:002.5
DNCNIELSEN Rene` 627OCRHolstebroM 40-4400:00:0401:58:2301:58:30.7001:58:34.950:002.5
DNCLEONI Mauro 856M 45-4900:00:0201:59:0401:59:12.4501:59:14.700:002.5
DNCCECCOTTI Daniele 846M 45-4900:00:0101:59:0501:59:12.7501:59:14.700:002.5
DNCPENNISI Dario 847M 45-4900:00:0201:59:0501:59:12.1501:59:14.700:002.5
DNCGRZEGORZYCA Damian 608SOCIOS SILESIAM 40-4400:00:0201:59:0601:59:16.6501:59:18.800:002.5
DNCKASTSIUCHENKA Volha 752W 30-3400:00:0302:00:0202:00:09.4002:00:13.050:002.5
DNCTORRES Oscar Barranquero 588THE LAST TRAININGM 40-4400:00:0202:00:1502:00:23.4002:00:25.750:002.5
DNCDION Stéphane 519M 35-3900:00:0502:00:1102:00:25.2002:00:30.350:002.5
DNCJUSZCZYK Jaroslaw 527Dziki z GosławaM 35-3900:00:0302:00:5002:00:57.6002:01:01.350:002.5
DNCROMANOV Semen 65RussiaM Elite00:00:0102:01:0202:01:11.9002:01:13.400:002.5
DNCZELENKOVÁ Simona 692#GLADIATORRACETEAMW 18-2400:00:0202:01:1502:01:19.4502:01:22.200:002.5
DNCOHLSSON Jesper 245Karlshamn OCRM 25-2900:00:0202:01:3102:01:40.8002:01:42.900:002.5
DNCMADSEN Ditlev 181M 18-2400:00:0202:01:5502:02:03.8002:02:06.250:002.5
DNCNATALIA Bondarenko 913W 55+00:00:0402:01:5402:02:03.2502:02:07.450:002.5
DNCRANNIKKO Emmy 781KFUM Uppsala SurvivalW 35-3900:00:0302:02:2602:02:36.8502:02:39.900:002.4
DNCMONTAN Johan 548M 35-3900:00:0302:02:3502:02:41.4502:02:45.150:002.4
DNCLOUCA Sebastian 516M 35-3900:00:0302:02:5702:03:14.0502:03:17.400:002.4
DNCFROLOVA Polina 756W 30-3400:00:0202:03:3502:03:41.4002:03:43.950:002.4
DNCJURNÍK Lukáš 176M 18-2400:00:0202:03:2602:03:41.9002:03:44.550:002.4
DNCGROOTERS Leo 594Team Outdoor OCRM 40-4400:00:0202:03:3402:03:43.1002:03:46.000:002.4
DNCOLDHAM Justin 857M 45-4900:00:0202:03:4402:03:51.3002:03:53.950:002.4
DNCCHATFIELD Connor 149M 18-2400:00:0002:04:0802:04:14.5002:04:15.150:002.4
DNCBERGE Kjetil 475M 35-3900:00:0302:04:0602:04:15.9002:04:19.050:002.4
DNCLANTZ Anders 580M 40-4400:00:0202:04:4102:04:49.4502:04:52.400:002.4
DNCCURDY Maxence 299InvictaM 25-2900:00:0402:04:4602:04:55.4002:04:59.450:002.4
DNCKOVALEFF Lena 906W 45-4900:00:0302:04:5502:05:03.4002:05:07.100:002.4
DNCSERGEY Rudometov 477M 35-3900:00:0302:05:0502:05:23.1502:05:26.150:002.4
DNCÖLUND Emma 749W 30-3400:00:0302:05:1702:05:24.2502:05:27.550:002.4
DNCLAGREZE Sven 461OCR MunichM 35-3900:00:0202:05:1902:05:28.0502:05:30.300:002.4
DNCSUBBOTINAS Vitalijus 449OCR Baltic warriorsM 35-3900:00:0202:05:3802:05:48.4002:05:50.700:002.4
DNCCONVERS Jean-Luc 887M 55+00:00:0202:06:0702:06:15.9002:06:18.850:002.4
DNCSTEVENSON Alan 532M 35-3900:00:0202:06:2702:06:34.5502:06:37.000:002.4
DNCJACKIEWICZ Lukasz 438M 30-3400:00:0302:06:4302:06:50.8502:06:54.150:002.4
DNCKRYVKO Margaryta 736W 25-2900:00:0102:06:5402:07:00.8502:07:02.000:002.4
DNCRECIO Diego Serrano 291M 25-2900:00:0302:07:4002:07:46.8502:07:50.100:002.3
DNCTIMUR 75M Elite00:00:0102:07:4902:07:56.7502:07:58.300:002.3
DNCSVENSSON Engla 895W 13-1700:00:0302:08:0202:08:08.1502:08:11.300:002.3
DNCKOLEGOWICZ Klaudia 759W 30-3400:00:0302:08:0702:08:23.6502:08:26.750:002.3
DNCOSTERMEIER Gabriel 266M 25-2900:00:0202:08:3202:08:45.3502:08:47.400:002.3
DNCMAZUEL Alexandre 244TEAM SENZUM 25-2900:00:0102:08:4802:08:55.6502:08:57.600:002.3
DNCVIAGA Raul Fidel Duharte 505M 35-3900:00:0302:08:5702:09:05.2002:09:08.650:002.3
DNCBIGLANDS Steve 864M 50-5400:00:0102:09:0202:09:08.9002:09:10.800:002.3
DNCMACH Martin 845M 45-4900:00:0202:08:5602:09:14.8002:09:17.450:002.3
DNCDUBROVINA Natalia 744W 30-3400:00:0202:09:1402:09:24.7502:09:27.200:002.3
DNCLÜPKE Sebastian 214Herakliden-Team DeutschlandM 25-2900:00:0202:09:1702:09:25.3002:09:27.450:002.3
DNCALGERSTEDT Jimmy 575M 40-4400:00:0302:09:3902:09:47.6502:09:50.650:002.3
DNCPOULTER Mark 386Team BrighthammerM 30-3400:00:0202:09:4302:09:52.0002:09:54.650:002.3
DNCDOUHAN Dylan 173Karlshamn OCRM 18-2400:00:0202:09:4502:09:51.7502:09:54.650:002.3
DNCGOLISCH Nina 791Herakliden-Team DeutschlandW 35-3900:00:0202:09:4702:09:58.4502:10:00.850:002.3
DNCKILIMNIK Tomasz 347M 30-3400:00:0302:09:5202:10:00.7502:10:03.750:002.3
DNCLEERBAEK Mads 655M 13-1700:00:0202:10:2202:10:28.8002:10:31.000:002.3
DNCBOCCON Alexandre 60OCR FranceM Elite00:00:0102:10:1502:10:34.3002:10:36.150:002.3
DNCFAVA Alan 520M 35-3900:00:0202:10:2702:10:34.2502:10:37.100:002.3
DNCBRUUN Emil Hvidenlund 172M 18-2400:00:0202:10:3302:10:40.0502:10:42.300:002.3
DNCJANISZEWSKI Grzegorz 878Dziady OCRM 50-5400:00:0302:10:3102:10:42.0002:10:45.150:002.3
DNCBĄK Łukasz 161M 18-2400:00:0202:10:3902:10:46.3002:10:48.900:002.3
DNCMAWLAM Jason 394M 30-3400:00:0102:10:4302:10:53.1502:10:54.850:002.3
DNCTHOMAYER Jan 182M 18-2400:00:0202:10:5902:11:06.5502:11:09.500:002.3
DNCCHŁĄD Aleksander 535M 35-3900:00:0202:11:2402:11:32.1002:11:34.350:002.3
DNCKAMIŃSKI Zbigniew 496M 35-3900:00:0202:11:4302:11:51.1502:11:53.800:002.3
DNCVIRTANEN Maggie 912W 50-5400:00:0402:11:4902:11:59.3002:12:03.300:002.3
DNCVOSSLER Martin 557M 35-3900:00:0002:12:0802:12:16.3502:12:16.350:002.3
DNCGILARSKA Marta 739W 25-2900:00:0102:12:1202:12:19.1502:12:20.850:002.3
DNCBARKSKOG Caritha 793TeamToughRaceSwedenW 35-3900:00:0302:12:1202:12:19.4502:12:22.600:002.3
DNCBLEYS Pascal 863M 50-5400:00:0202:12:2602:12:36.7002:12:38.750:002.3
DNCBERLIN Nanna 711W 25-2900:00:0102:12:5402:13:02.3002:13:03.850:002.3
DNCDAY Nick 551M 35-3900:00:0202:12:5302:13:01.5502:13:04.100:002.3
DNCJOHANSSON Tom 216M 25-2900:00:0202:13:0002:13:16.5002:13:18.850:002.3
DNCPOUROVA Katerina 699W 18-2400:00:0302:13:1002:13:16.6002:13:19.950:002.3
DNCSÉBASTIEN Galdeano 430M 30-3400:00:0102:13:2302:13:31.2002:13:33.100:002.2
DNCJAGER Robin De 283M 25-2900:00:0302:13:3502:13:43.5502:13:47.150:002.2
DNCBOZIC Sarah 782OCR-PACEMAKERSW 35-3900:00:0202:13:5402:14:02.0502:14:05.000:002.2
DNCMATYASI Gábor 865M 50-5400:00:0102:14:2602:14:31.5502:14:33.150:002.2
DNCTORESÄTER Ludvig "luddet" 249OCR ELITE APPARELM 25-2900:00:0202:14:2702:14:33.8502:14:36.000:002.2
DNCLEE Mikaela 902Sports Club OCR SwedenW 45-4900:00:0402:14:2402:14:32.8502:14:37.150:002.2
DNCJOHANSEN Philip Hust 224M 25-2900:00:0202:14:4002:14:49.5502:14:51.550:002.2
DNCKEREK Bernhard 502Bähringer WildsaueM 35-3900:00:0302:14:5002:14:59.9002:15:03.350:002.2
DNCGRESZTA Waldemar 850M 45-4900:00:0202:15:2302:15:32.8002:15:35.550:002.2
DNCSZUMLAŃSKI Marcin 383M 30-3400:00:0202:15:3002:15:35.5002:15:37.850:002.2
DNCSJÖGREN Niklas 469Team FrigovästM 35-3900:00:0202:15:3002:15:36.8002:15:39.600:002.2
DNCSTILLWELL Kate 86W Elite00:00:0202:15:3202:15:38.9002:15:41.050:002.2
DNCZEBERG Alicia 890Karlshamn OCRW 13-1700:00:0202:15:3702:15:45.0502:15:47.450:002.2
DNCRĘBACZ Krzysztof 854M 45-4900:00:0302:15:3702:15:47.8002:15:51.150:002.2
DNCWAHLUND Jesper 635Team barekohuddinge.seM 40-4400:00:0202:15:4002:15:58.1502:16:00.700:002.2
DNCBROKEŠ Ondřej 139M 18-2400:00:0102:15:5702:16:05.5002:16:06.500:002.2
DNCMORAWSKI Grzegorz 490M 35-3900:00:0202:16:2002:16:28.5002:16:30.800:002.2
DNCSUŠÁNKOVÁ Klára 690W 18-2400:00:0202:16:1702:16:34.5002:16:37.450:002.2
DNCMACANOVÁ Zuzana 689W 18-2400:00:0302:12:0402:16:34.7002:16:37.750:002.2
DNCKANSTRUP Nicolai 226M 25-2900:00:0202:16:2602:16:36.1502:16:38.300:002.2
DNCZALEJASZ Sylwester 536Hell SquadM 35-3900:00:0202:17:2602:17:37.4502:17:39.900:002.2
DNCCHRISTENSEN Michael 338Ocr FightersM 30-3400:00:0302:17:3302:17:39.7002:17:43.200:002.2
DNCDITTMANN Kerstin 790UrbanRunningW 35-3900:00:0202:17:5202:17:58.8002:18:01.250:002.2
DNCMARUSZAK Anna 738W 25-2900:00:0102:18:1502:18:18.4502:18:20.000:002.2
DNCWRIGHT Sally 901W 45-4900:00:0302:18:5602:19:03.1502:19:07.050:002.2
DNCSVENSSON Nicklas 243M 25-2900:00:0202:18:5902:19:06.6502:19:09.200:002.2
DNCMESZAROS Csaba 870M 50-5400:00:0202:19:0902:19:17.0002:19:19.100:002.2
DNCKRZYŻOWSKI Grzegorz 563M 35-3900:00:0202:19:0402:19:20.5002:19:22.950:002.2
DNCSEGARRA Jossuan 170M 18-2400:00:0002:19:1402:19:26.1502:19:26.150:002.2
DNCVEDERSØ Mik 619M 40-4400:00:0302:19:4602:19:54.6002:19:58.200:002.1
DNCDIDIER Ludovic 175M 18-2400:00:0302:19:5402:20:03.0502:20:06.200:002.1
DNCŻUKOWSKA Aniela 113W Elite00:00:0202:19:5702:20:05.9002:20:08.750:002.1
DNCKOMOSIŃSKI Łukasz 313M 30-3400:00:0302:20:1802:20:27.8502:20:31.400:002.1
DNCDOODY Kelvin 442M 30-3400:00:0102:20:2802:20:35.3002:20:37.250:002.1
DNCCHRISTOPHER Michel 369M 30-3400:00:0302:20:4402:21:01.0502:21:04.050:002.1
DNCKOŁODZIEJCZYK Dariusz 576SOCIOS SILESIAM 40-4400:00:0202:21:0402:21:12.0002:21:14.250:002.1
DNCWILKINSON Becca 745Team MactuffW 30-3400:00:0302:21:0702:21:15.5502:21:19.150:002.1
DNCBENGTSSON Per 885M 55+00:00:0202:21:1102:21:19.4002:21:22.100:002.1
DNCMORAN Fred 569M 40-4400:00:0202:21:1002:21:20.4502:21:23.000:002.1
DNCPETROW Janeck 506M 35-3900:00:0202:20:5202:21:32.9502:21:35.350:002.1
DNCMIODEK Adrian 533Dirty SparrowsM 35-3900:00:0202:21:2902:21:35.5502:21:38.000:002.1
DNCDRÁBKOVÁ Veronika 681W 18-2400:00:0302:21:4002:21:47.9002:21:50.950:002.1
DNCBERQUEZ Andrea 116Team OMRMW Elite00:00:0102:21:5102:21:59.8502:22:00.950:002.1
DNCJASIŃSKA Alicja 893Gorący Potok Team- Podhalańskie DzikiW 13-1700:00:0302:22:4502:22:58.8002:23:01.850:002.1
DNCWYSŁUCH Iza 95W Elite00:00:0202:23:1702:23:25.2002:23:27.250:002.1
DNCPOLSTRA Berry 427M 30-3400:00:0302:23:1702:23:25.9002:23:29.200:002.1
DNCŁASKOWSKI Piotr 382BeFit24TeamM 30-3400:00:0302:23:1702:23:45.3502:23:48.600:002.1
DNCGABELGAARD Tanja 102W Elite00:00:0202:23:4502:23:55.4002:23:57.800:002.1
DNCKOŁCZYN Magdalena 93W Elite00:00:0202:23:4902:23:57.9502:24:00.650:002.1
DNCCASTILLO Aythami Castilla Del 400M 30-3400:00:0202:23:5002:23:58.4002:24:00.950:002.1
DNCSPIJKER Dayen 903W 45-4900:00:0202:24:3902:24:46.6502:24:49.550:002.1
DNCWARING Evie 898W 13-1700:00:0302:25:0502:25:09.3502:25:13.050:002.1
DNCMISSALA Magda 897POWER TRAININGW 13-1700:00:0202:25:0602:25:10.6002:25:13.200:002.1
DNCČÍŽEK Jan 268M 25-2900:00:0402:25:0402:25:14.4002:25:18.700:002.1
DNCOLEKSIUK Liudmyla 780W 35-3900:00:0202:25:2502:25:38.4002:25:40.500:002.1
DNCPHILLIPS Alastair 248M 25-2900:00:0202:25:5902:26:07.2502:26:09.950:002.1
DNCJOHANSSON Malin 805OCR ELITE APPARELW 40-4400:00:0202:26:1802:26:26.4002:26:29.050:002
DNCSWART Maarten 517M 35-3900:00:0202:26:3202:26:37.1502:26:39.650:002
DNCRAKHIMBAYEV Almas 32M Elite00:00:0102:27:0302:27:14.1002:27:15.100:002
DNCTOJAR Luis Martin 63Leyendas ocr by xforceM Elite00:00:0102:27:0202:27:21.2502:27:23.150:002
DNCJOBANPUTRA Mayoor 278M 25-2900:00:0202:27:3202:27:41.5002:27:44.350:002
DNCROBBRECHT Chris 143M 18-2400:00:0002:27:3302:27:44.7502:27:45.550:002
DNCSTRÖM Tomas 554M 35-3900:00:0402:27:4902:28:10.3502:28:14.550:002
DNCROSSER Claire 783The Elements EliteW 35-3900:00:0202:28:1802:28:24.1502:28:26.700:002
DNCJOYCE Katie 796W 35-3900:00:0202:28:1802:28:24.8002:28:27.050:002
DNCJOHANSSON Caroline 708KFUM Uppsala SurvivalW 25-2900:00:0102:28:3202:28:39.2502:28:41.200:002
DNCNOWAK Lukasz 262Ocr FightersM 25-2900:00:0202:28:3302:28:40.0002:28:42.250:002
DNCKOLLBERG Louise 685W 18-2400:00:0202:29:0302:29:11.3002:29:13.650:002
DNCNOWICKA Justyna 775W 30-3400:00:0202:29:1702:29:24.3002:29:27.100:002
DNCJOHANSSON Ellen 767Team KroppslabbetW 30-3400:00:0302:29:5602:30:01.3502:30:04.650:002
DNCHALLGREN Matilda 769Team KroppslabbetW 30-3400:00:0302:29:5602:30:01.1502:30:04.750:002
DNCLEŚNIAK Grzegorz 613Dirty SparrowsM 40-4400:00:0202:29:5502:30:02.4002:30:04.850:002
DNCDONALD Lee 779Team LDPTW 35-3900:00:0102:29:5802:30:07.0002:30:08.850:002
DNCWÓJCIK Michał 164Husaria Race Team KatowiceM 18-2400:00:0202:30:2202:30:26.5002:30:29.150:002
DNCOLSSON Anders E 824Karlshamn OCRM 45-4900:00:0402:30:4102:30:46.9502:30:51.200:002
DNCGAWRYLUK Michał 539M 35-3900:00:0202:30:4002:30:48.5502:30:51.400:002
DNCHERNANDEZ Arnedo 480M 35-3900:00:0202:30:3502:30:53.8502:30:56.150:002
DNCLIMANOWSKA Olga 719W 25-2900:00:0102:31:1902:31:26.3002:31:27.400:002
DNCKLONOWSKI Kamil 346Husaria Race Team KatowiceM 30-3400:00:0202:31:1502:31:25.7502:31:28.350:002
DNCSCHEJBALOVÁ Tereza 118W Elite00:00:0102:31:2402:31:32.9502:31:34.000:002
DNCBOANDER Camilla 713W 25-2900:00:0202:31:3602:31:42.1502:31:44.200:002
DNCHOLUBAR Martin 476M 35-3900:00:0202:31:5102:31:58.2502:32:00.250:002
DNCSZUBA-ŁATA Klaudia 679Enjoy by sportW 18-2400:00:0202:31:5802:32:06.7002:32:08.950:002
DNCJOHANNESSEN Anne Marie 87W Elite00:00:0102:32:0602:32:11.0002:32:12.900:002
DNCGRIGALIONYTĖ Donata 107W Elite00:00:0202:32:0502:32:10.9502:32:12.950:002
DNCTHORKILDSEN Evy Marie 94W Elite00:00:0102:32:0602:32:11.1502:32:12.950:002
DNCSEREDA Evgeniy 208M 25-2900:00:0202:32:1102:32:18.1502:32:20.150:002
DNCCHMIELORZ Donata 103W Elite00:00:0202:32:2602:32:34.5002:32:37.400:002
DNCMEIER Rolf 541M 35-3900:00:0902:32:2002:32:28.9502:32:38.200:002
DNCHAGLUND Cecilia 774W 30-3400:00:0302:32:4702:33:02.9002:33:06.850:002
DNCGALTIER Muriel 99W Elite00:00:0102:32:5902:33:08.8002:33:10.700:002
DNCOLESEN Christina 914W 55+00:00:0402:34:2102:34:28.5002:34:33.100:001.9
DNCGARDEBRAND Lucas Kjellin 146GRIPEN OCRM 18-2400:00:0102:34:5102:35:00.1502:35:01.600:001.9
DNCARONSSON Alexander 215M 25-2900:00:0202:35:0902:35:28.2002:35:30.800:001.9
DNCGUILLAUMIN Thomas 433Tr1be OCR TeamM 30-3400:00:0202:35:1002:35:29.6002:35:32.300:001.9
DNCMARTIN Flore 750OCR Belgium Wallonia menW 30-3400:00:0302:35:1202:35:29.4002:35:32.550:001.9
DNCMARTIN Lucie 751OCR Belgium Wallonia menW 30-3400:00:0302:35:1202:35:29.7502:35:32.850:001.9
DNCFRICK Emma 721W 25-2900:00:0102:35:5602:36:01.1502:36:02.800:001.9
DNCHARVEY-VALLENDER Oliver 421Cliff Lakes OCRM 30-3400:00:0202:36:2502:36:33.0002:36:35.400:001.9
DNCALEKSANDR Anokhin 327Stage team RussiaM 30-3400:00:0202:36:2602:36:39.5002:36:42.300:001.9
DNCPORTON David 560M 35-3900:00:0302:37:2902:37:36.4502:37:39.700:001.9
DNCSANNA Luca 582Anis MuddersM 40-4400:00:0802:38:0802:38:29.4002:38:37.650:001.9
DNCFRAMVIG Mica 726W 25-2900:00:0202:38:5302:39:01.4502:39:03.450:001.9
DNCSZYDŁOWSKI Łukasz 498M 35-3900:00:0302:39:0902:39:19.1002:39:22.250:001.9
DNCCERBA Jaroslaw 851M 45-4900:00:0202:40:3402:40:41.1502:40:43.800:001.9
DNCJAGODZIŃSKI Damian 157xRunnersM 18-2400:00:0002:40:5502:41:06.6502:41:06.650:001.9
DNCLEŚNIAK Dorota 809Dirty SparrowsW 40-4400:00:0302:40:5702:41:04.9002:41:08.200:001.9
DNCSALUSTE Carry 46M Elite00:00:0202:41:1202:41:21.3502:41:24.050:001.9
DNCFRONTCZAK Izabela 758W 30-3400:00:0302:41:2202:41:30.4002:41:33.700:001.9
DNCHINTON Mike 523M 35-3900:00:0002:41:3302:41:40.0002:41:40.000:001.9
DNCDAVIDSSON Richard 284MIT Tough TeamM 25-2900:00:0402:41:4102:41:50.2502:41:54.300:001.9
DNCKOLOTII Mykola 364M 30-3400:00:0202:41:4502:41:54.7002:41:57.300:001.9
DNCKUZMYAK Vasylyna 754W 30-3400:00:0202:41:4902:41:59.5002:42:01.950:001.9
DNCEGNER Toril 786W 35-3900:00:0202:42:0202:42:10.4002:42:12.550:001.8
DNCBRORSSON Sebastian 287M 25-2900:00:0302:42:2502:42:32.2502:42:36.150:001.8
DNCVIDAL Rubén Pérez 584M 40-4400:00:0202:42:2302:42:36.0002:42:38.050:001.8
DNCGOODWIN Ruth 812W 40-4400:00:0202:42:3302:42:40.8502:42:43.650:001.8
DNCTCHIKNAVORIAN Carla 894W 13-1700:00:0302:42:2702:42:42.0002:42:45.250:001.8
DNCPLATA Arkadiusz 342M 30-3400:00:0302:42:2802:42:45.5002:42:48.700:001.8
DNCKIRKWOOD Emma 760W 30-3400:00:0302:43:1802:43:24.4002:43:27.850:001.8
DNCRAWSON Jack 652M 13-1700:00:0202:43:2302:43:28.0502:43:30.100:001.8
DNCROSE-HORNE Maximus 648M 13-1700:00:0102:43:2402:43:28.4502:43:30.400:001.8
DNCGRANT Frank 654M 13-1700:00:0202:43:2302:43:28.4502:43:30.950:001.8
DNCLASKOWSKI Tomasz 344M 30-3400:00:0302:43:2702:43:43.6502:43:47.150:001.8
DNCCREVEAU Anthony 631TeamPRiDEorDiEM 40-4400:00:0302:43:4002:43:49.5002:43:53.050:001.8
DNCSØRENSEN Mette 672ASICSFrontRunnerW 18-2400:00:0202:44:1902:44:26.6502:44:29.300:001.8
DNCELENA Galushkina 788W 35-3900:00:0202:44:3402:44:48.1502:44:50.500:001.8
DNCYAKUSHEV Anton 179OCR RussiaM 18-2400:00:0202:45:0702:45:24.2002:45:26.850:001.8
DNCPOZO Juan Carlos Contador 405Sons of workout OCRM 30-3400:00:0002:45:3702:45:45.1502:45:45.150:001.8
DNCGONZALEZ-DIAZ Andres Ramiro 184TeamMadnessM 18-2400:00:0202:46:1702:46:25.0002:46:27.800:001.8
DNCGŁOWACZ Grzegorz 852Husaria Race TeamM 45-4900:00:0302:47:5102:47:56.7002:47:59.750:001.8
DNCSOBRINO David Ruedas 510M 35-3900:00:0202:48:5202:48:59.0502:49:01.450:001.8
DNCSZOSTEK Patrycja 702W 18-2400:00:0202:50:0002:50:05.8002:50:08.300:001.8
DNCKARPOVICH Alena 748VolatW 30-3400:00:0302:51:1802:51:26.7502:51:30.450:001.7
DNCDAVIS Helen 802W 40-4400:00:0302:51:2402:51:31.1502:51:34.700:001.7
DNCMONTRON Adrien 441M 30-3400:00:0202:51:3502:51:42.7502:51:44.850:001.7
DNCŻAK Elżbieta 785BeFit24TeamW 35-3900:00:0302:51:3802:51:45.3502:51:48.550:001.7
DNCWOŹNIAK Joanna 731Husaria Race TeamW 25-2900:00:0002:51:5002:51:58.5502:51:59.450:001.7
DNCMARKSTEDT Anna-Lee 819W 40-4400:00:0202:51:5402:52:00.5502:52:03.100:001.7
DNCSADOWSKI Michał 384M 30-3400:00:0102:52:1402:52:22.1002:52:23.550:001.7
DNCMARIYA Novoselskaya 797GAZPROMBANK OCR TEAMW 35-3900:00:0202:53:0802:53:15.2002:53:17.650:001.7
DNCRACZYŃSKA Anka 795Baltic SealsW 35-3900:00:0202:53:2402:53:42.9002:53:45.600:001.7
DNCRUDY Rychlinski 426M 30-3400:00:0202:53:3202:53:43.9502:53:46.350:001.7
DNCKALMAR Sara 671W 18-2400:00:0202:53:4002:53:47.9002:53:50.100:001.7
DNCHAMMARBÄCK Moa 686Team ValkyriaW 18-2400:00:0202:54:2602:54:31.9002:54:34.550:001.7
DNCMAJSZCZYK Paulina 740Hardcorowe WychylylybymyW 25-2900:00:0102:54:3902:54:47.2502:54:48.800:001.7
DNCKIND Pia 807W 40-4400:00:0302:55:3402:55:47.0002:55:50.050:001.7
DNCCZAJA Piotr 833CrossTeam Szczecinek PolskaM 45-4900:00:0102:56:2602:56:34.2502:56:35.950:001.7
DNCZIÓŁKOWSKA Aleksandra 735Hardcorowe WychylylybymyW 25-2900:00:0102:57:1902:57:22.9502:57:24.000:001.7
DNCHAWKINS Nathan 353M 30-3400:00:0402:57:2802:57:35.3502:57:39.500:001.7
DNCSHEPPARD Alison 801W 35-3900:00:0202:57:3302:57:41.6502:57:43.750:001.7
DNCKARLSSON Gunilla 813W 40-4400:00:0302:57:5302:58:01.0502:58:04.350:001.7
DNCOLENINA Elena 798W 35-3900:00:0202:58:5102:58:57.3502:58:59.450:001.7
DNCCICHA Natalia 694W 18-2400:00:0102:59:1602:59:25.1502:59:26.850:001.7
DNCVALERIA Shcherbinina 755W 30-3400:00:0402:59:3602:59:47.3002:59:51.500:001.7
DNCBREDIN Anna Olsson 730W 25-2900:00:0103:00:0103:00:08.4503:00:10.100:001.7
DNCRATCLIFFE Heather 794W 35-3900:00:0203:00:1203:00:19.9003:00:22.150:001.7
DNCKURAŚ Beata 98xRunnersW Elite00:00:0203:00:2703:00:35.4503:00:37.800:001.7
DNCSTENBÄCK Amanda 687W 18-2400:00:0203:00:4203:00:51.4503:00:53.900:001.7
DNCSZWARC Jagoda 787W 35-3900:00:0203:00:4603:01:03.2003:01:05.650:001.7
DNCTOCHKA Dzianis 319M 30-3400:00:0303:01:5503:02:01.9003:02:05.000:001.6
DNCGHAFRY Touria Zahra 669TeamMadnessW 18-2400:00:0203:02:5003:02:54.4503:02:57.400:001.6
DNCFARINA Sumaty Priscila Hernandez 670TeamMadnessW 18-2400:00:0203:02:5003:02:54.9503:02:57.650:001.6
DNCJIRKU Milan 399M 30-3400:00:0203:03:1003:03:14.0003:03:16.750:001.6
DNCMARTOS Eduardo 255Racers Legion AndalucíaM 25-2900:00:0103:03:2103:03:32.9503:03:34.800:001.6
DNCJAKOUBEK Jakub 37Rehasport teamM Elite00:00:0103:04:3403:04:45.7503:04:47.200:001.6
DNCCOULY Christophe - Akira 640OCR Belgium Wallonia menM 40-4400:00:0203:04:4703:04:54.0503:04:56.600:001.6
DNCGRAY Scott 375M 30-3400:00:0303:05:3303:05:43.9003:05:47.550:001.6
DNCMYALSKA Katarzyna 79Do porzygu OCR teamW Elite00:00:0203:05:3503:05:45.5003:05:47.850:001.6
DNCNATALIIA Mikhailova 771GAZPROMBANK OCR TEAMW 30-3400:00:0203:08:0903:08:15.7503:08:18.650:001.6
DNCSIŃCZUK Patrycja 800W 35-3900:00:0203:08:0903:08:17.4503:08:20.4037:391.6
DNCMIRASLAU Charapok 657VolatM 13-1700:00:0203:08:1803:08:27.2503:08:29.900:001.6
DNCSTEJSKALOVÁ Barbora 96W Elite00:00:0103:08:4603:09:04.1003:09:05.600:001.6
DNCGREC Klaudia 117Husaria Race TeamW Elite00:00:0203:10:2803:10:34.3003:10:37.250:001.6
DNCTITOV Denis 651M 13-1700:00:0203:10:4303:10:53.3003:10:55.950:001.6
DNCGARLACZ Justyna 770W 30-3400:00:0303:11:5303:12:00.7003:12:04.300:001.6
DNCGINON Loïc 239InvictaM 25-2900:00:0203:14:2303:14:28.4503:14:31.200:001.5
DNCAUBRIOT Pierre Charles 424M 30-3400:00:0303:15:0203:15:21.2503:15:24.500:001.5
DNCKULAK Rafał 585Baltic SealsM 40-4400:00:0203:16:4003:16:47.6503:16:50.450:001.5
DNCTHAYSEN Susanne 818W 40-4400:00:0303:17:4003:17:47.4003:17:50.750:001.5
DNCSZADYKO Monika 703W 18-2400:00:0103:17:4403:17:57.0003:17:58.850:001.5
DNCCHMIELORZ Józef 380Carbon OCR Racing TeamM 30-3400:00:0103:17:4903:17:59.1003:18:00.550:001.5
DNCKRÓLAK Margarita 701W 18-2400:00:0103:18:4103:18:47.2003:18:48.750:001.5
DNCGONZÁLEZ Ana De Miguel 765W 30-3400:00:0303:19:1603:19:23.2503:19:26.300:001.5
DNCCUERVO Alex Felipe 315TRI OLENYAM 30-3400:00:0203:19:3903:19:48.0503:19:51.000:001.5
DNCBEORLEGI Irati 109DENONTZATW Elite00:00:0203:20:4303:20:51.5503:20:53.900:001.5
DNCМАКОРИНА Полина 734W 25-2900:00:0103:23:0803:23:15.0003:23:16.550:001.5
DNCKLONOWICZ Patrycja 697W 18-2400:00:0103:23:2003:23:26.7003:23:28.650:001.5
DNCSŁONIEWSKI Rafał 500M 35-3900:00:0303:25:3303:25:42.1003:25:45.550:001.5
DNCDĄDELEWSKA Joanna 799Piękni i BestieW 35-3900:00:0303:25:3603:26:14.2003:26:17.650:001.5
DNCVERSEPUECH Adélie 746W 30-3400:00:0303:25:5803:26:15.4503:26:19.050:001.5
DNCGARNUSZEK Anita 729W 25-2900:00:0103:26:5303:27:00.9503:27:02.450:001.4
DNCBURS Klaudia 695W 18-2400:00:0203:28:0903:28:26.4503:28:28.700:001.4
DNCFRANICA Mateusz 159Carbon OCR Racing TeamM 18-2400:00:0203:28:2503:28:37.7003:28:40.450:001.4
DNCHOZ Isabel De La 97Brave BullsW Elite00:00:0203:29:0703:29:14.8503:29:17.250:001.4
DNCZYWER Urszula 717W 25-2900:00:0103:30:0303:30:10.4503:30:11.900:001.4
DNCKOZIOŁ Kamil 232M 25-2900:00:0203:31:1903:31:38.1503:31:40.750:001.4
DNCBARALDI Davide 395White DonkeysM 30-3400:00:0203:31:5403:32:08.6503:32:10.700:001.4
DNCGÓRZYŃSKI Konrad 662M 13-1700:00:0203:32:4203:32:58.4503:33:00.450:001.4
DNCKUCZKOWSKA Marta 718Wataha Grupa TreningowaW 25-2900:00:0103:33:1503:33:21.7503:33:22.750:001.4
DNCRIPOLLÉS Lluna Sanz 716W 25-2900:00:0003:33:4103:33:47.2003:33:48.050:001.4
DNCNAVARRO Cristian Manuel Madrid 211M 25-2900:00:0103:35:2503:35:50.7503:35:52.550:001.4
DNCBELLIDO David Fernández 210M 25-2900:00:0203:35:3603:35:50.6003:35:52.600:001.4
DNCGOFFIN Anneleen 776OCR Waasland BelgiumW 30-3400:00:0303:36:3903:36:57.3503:37:00.650:001.4
DNCHEIJKENSKJÖLD Fenja 763W 30-3400:00:0303:38:1403:38:18.3503:38:22.050:001.4
DNCGARDABOU Ibtisam 680W 18-2400:00:0203:39:5503:40:21.2003:40:23.400:001.4
DNCJANSEN Theo 561M 35-3900:00:0203:40:4503:40:51.5503:40:54.150:001.4
DNCHAHN Henrik 389M 30-3400:00:0203:41:5403:42:03.3003:42:05.650:001.4
DNCGROBELNA Aleksandra 693W 18-2400:00:0103:42:5603:43:05.0003:43:06.300:001.3
DNCBALUTA-MAŁECKA Edyta 700W 18-2400:00:0103:42:5603:43:05.2503:43:06.650:001.3
DNCPAPIÓR Jolanta 704W 18-2400:00:0203:48:1503:48:21.7503:48:23.750:001.3
DNCKAŁUŻNY Michał 280Dirty SparrowsM 25-2900:00:0304:00:4104:00:47.2004:00:51.050:001.2
DNCRITZLER Anna 712Unterfranken VikingsW 25-2900:00:0204:02:4304:02:51.5004:02:53.650:001.2
DNCMACIUSZEK Julia 698W 18-2400:00:0104:03:5804:04:08.3004:04:09.750:001.2
DNCTULLOCH Jon 'abs' 642M 40-4400:00:0204:08:0204:08:11.8504:08:14.800:001.2
DNCMISSALA Andrzej 659POWER TRAININGM 13-1700:00:0104:10:2004:10:27.6004:10:29.350:001.2
DNCDELOGE Alexandre 622M 40-4400:00:0304:14:3004:14:46.7004:14:50.050:001.2
DNCCASTELEIJN Selma 691Outdoor ValleyW 18-2400:00:0204:19:0104:19:10.2004:19:12.850:001.2
DNCWUNDERLICH Tobias 292Unterfranken VikingsM 25-2900:00:0204:31:5404:32:04.0504:32:06.950:001.1
DNCSTRNAD Sebastian 398Unterfranken VikingsM 30-3400:00:0204:37:5204:38:01.2504:38:03.400:001.1
LINDBERG Mads 923M JourneymanDNF DNF DNF DNF--
WITT André 73M EliteDNF DNF DNF DNF--
ŠNOPL Víťa 140#GLADIATORRACETEAMM 18-24DNF DNF DNF DNF--
ILNICKI Darek 340M 30-34DNF DNF DNF DNF--
LUND Maria 683W 18-24DNF DNF DNF DNF--
HAAVISTO Ellen 675EFI OCR TEAMW 18-24DNF DNF DNF DNF--
LILJESTAM Richard 180M 18-24DNF DNF DNF DNF--
NUTIL Michal 253M 25-29DNF DNF DNF DNF--
KOZLOWSKI Artur 124M 18-24DNF DNF DNF DNF--
HERNANDEZ Ayoze Herrera 316TFG/Toni MuscleM 30-34DNF DNF DNF DNF--
CURTIS Carl 359M 30-34DNF DNF DNF DNF--
BAKKER Pim 667M 13-17DNF DNF DNF DNF--
BEURER Stephan 258M 25-29DNF DNF DNF DNF--
ÁLVAREZ Rafita Fernández 583M 40-44DNF DNF DNF DNF--
HAJEWSKI Michał 618M 40-44DNF DNF DNF DNF--
COMMANDEUR Tjeerd 437M 30-34DNF DNF DNF DNF--
OŚLIZŁO Tomasz 3Husaria Race TeamM EliteDNF DNF DNF DNF--
HAAVISTO Emmy 673EFI OCR TEAMW 18-24DNF DNF DNF DNF--
BARANOWSKA Katarzyna 105Gorący Potok Team- Podhalańskie DzikiW EliteDNF DNF DNF DNF--
POZNYAK Tatiana 816GAZPROMBANK OCR TEAMW 40-44DNF DNF DNF DNF--
GRAUTE Matthias 10M EliteDNF DNF DNF DNF--
ULRICH Susanne 720W 25-29DNF DNF DNF DNF--
SANDBERG Amanda 677Team MerrellW 18-24DNF DNF DNF DNF--
SZECHLICKI Dawid 664M 13-17DNF DNF DNF DNF--
BAŁDYGA Miłosz 665M 13-17DNF DNF DNF DNF--
Znaleziono 899 wynik(ów)